Flight Track Log - Related Links

Times and Time Zones

All times are in EST time to prevent confusion due to time zone crossing. See the VP-BLX flight status page for this flight to view local times or setup timezone preferences in your user account.

Time Position Orientation Groundspeed Altitude Reporting Facility
EST Latitude Longitude Course Direction KTS MPH feet Rate Location/Type
Sat 02:51:36 AM 55.9730 37.4250 239° Southwest 120 138  Level FlightAware ADS-B
Sat 02:52:08 AM 55.9670 37.3870 254° West 170 196 1,500 2,471 Climbing FlightAware ADS-B
Sat 02:52:44 AM 55.9590 37.3330 255° West 174 200 2,800 1,583 Climbing FlightAware ADS-B
Sat 02:53:20 AM 55.9510 37.2760 256° West 220 253 3,400 1,300 Climbing FlightAware ADS-B
Sat 02:53:44 AM 55.9480 37.2320 263° West 238 274 4,100 2,250 Climbing FlightAware ADS-B
Sat 02:54:16 AM 55.9550 37.1680 281° West 244 281 5,500 2,625 Climbing FlightAware ADS-B
Sat 02:55:04 AM 55.9660 37.0710 281° West 252 290 7,600 2,605 Climbing FlightAware ADS-B
Sat 02:55:32 AM 55.9730 37.0150 283° West 256 295 8,800 2,500 Climbing FlightAware ADS-B
Sat 02:55:52 AM 55.9780 36.9730 282° West 257 296 9,600 1,929 Climbing FlightAware ADS-B
Sat 02:56:28 AM 55.9860 36.8990 281° West 278 320 10,600 1,239 Climbing FlightAware ADS-B
Sat 02:57:24 AM 56.0030 36.7570 282° West 335 386 11,500 1,435 Climbing FlightAware ADS-B
Sat 02:58:00 AM 56.0140 36.6600 282° West 346 398 12,800 2,375 Climbing FlightAware ADS-B
Sat 02:59:00 AM 56.0330 36.4900 281° West 349 402 15,300 2,089 Climbing FlightAware ADS-B
Sat 02:59:52 AM 56.0500 36.3350 281° West 370 426 16,700 1,814 Climbing FlightAware ADS-B
Sat 03:00:26 AM 56.0470 36.3620 101° East 352 405 17,900 2,143 Climbing FlightAware ADS-B
Sat 03:01:02 AM 56.0740 36.1240 282° West 377 434 19,200 1,723 Climbing FlightAware ADS-B
Sat 03:02:07 AM 56.0960 35.9210 281° West 396 456 20,800 1,603 Climbing FlightAware ADS-B
Sat 03:02:58 AM 56.1130 35.7560 281° West 401 461 22,300 1,846 Climbing FlightAware ADS-B
Sat 03:03:38 AM 56.1270 35.6230 281° West 399 459 23,600 1,560 Climbing FlightAware ADS-B
Sat 03:04:38 AM 56.1470 35.4290 281° West 409 471 24,900 1,263 Climbing FlightAware ADS-B
Sat 03:05:13 AM 56.1590 35.3120 280° West 415 478 25,600 1,371 Climbing FlightAware ADS-B
Sat 03:05:48 AM 56.1720 35.1920 281° West 417 480 26,500 1,263 Climbing FlightAware ADS-B
Sat 03:06:29 AM 56.1870 35.0520 281° West 420 483 27,200 1,026 Climbing FlightAware ADS-B
Sat 03:07:04 AM 56.1910 34.9260 273° West 443 510 27,800 738 Climbing FlightAware ADS-B
Sat 03:07:34 AM 56.1840 34.8210 263° West 453 521 28,000 171 Climbing FlightAware ADS-B
Sat 03:08:14 AM 56.1730 34.6680 263° West 450 518 28,000 750 Level FlightAware ADS-B
Sat 03:08:54 AM 56.1630 34.5200 263° West 448 516 29,000 1,185 Climbing FlightAware ADS-B
Sat 03:09:35 AM 56.1500 34.3750 261° West 457 526 29,600 825 Climbing FlightAware ADS-B
Sat 03:10:14 AM 56.1330 34.2230 259° West 465 535 30,100 649 Climbing FlightAware ADS-B
Sat 03:10:49 AM 56.1220 34.0970 261° West 455 524 30,400 480 Climbing FlightAware ADS-B
Sat 03:11:04 AM 56.1230 34.0380 272° West 445 512 30,500 677 Climbing FlightAware ADS-B
Sat 03:11:51 AM 56.1380 33.8700 279° West 423 487 31,100 897 Climbing FlightAware ADS-B
Sat 03:12:31 AM 56.1580 33.7450 286° West 422 486 31,800 1,333 Climbing FlightAware ADS-B
Sat 03:13:03 AM 56.1760 33.6310 286° West 413 475 32,700 1,406 Climbing FlightAware ADS-B
Sat 03:13:35 AM 56.1930 33.5270 286° West 409 471 33,300 813 Climbing FlightAware ADS-B
Sat 03:14:39 AM 56.2260 33.3190 286° West 412 474 34,000 420 Climbing FlightAware ADS-B
Sat 03:15:15 AM 56.2440 33.2000 285° West 414 476 34,000  Level FlightAware ADS-B
Sat 03:16:03 AM 56.2690 33.0370 286° West 413 475 34,000  Level FlightAware ADS-B
Sat 03:16:31 AM 56.2830 32.9500 286° West 413 475 34,000  Level FlightAware ADS-B
Sat 03:17:07 AM 56.3010 32.8280 285° West 413 475 34,000  Level FlightAware ADS-B
Sat 03:17:43 AM 56.3190 32.7080 285° West 412 474 34,000  Level FlightAware ADS-B
Sat 03:18:43 AM 56.3490 32.5110 285° West 412 474 34,000  Level FlightAware ADS-B
Sat 03:19:19 AM 56.3670 32.3890 285° West 414 476 34,000  Level FlightAware ADS-B
Sat 03:20:15 AM 56.3950 32.2010 285° West 415 478 34,000  Level FlightAware ADS-B
Sat 03:20:51 AM 56.4110 32.0860 284° West 416 479 34,000  Level FlightAware ADS-B
Sat 03:21:19 AM 56.4240 31.9980 285° West 416 479 34,000  Level FlightAware ADS-B
Sat 03:21:51 AM 56.4400 31.8850 284° West 416 479 34,000  Level FlightAware ADS-B
Sat 03:22:31 AM 56.4600 31.7470 285° West 417 480 34,000  Level FlightAware ADS-B
Sat 03:23:15 AM 56.4810 31.6000 285° West 417 480 34,000  Level FlightAware ADS-B
Sat 03:24:18 AM 56.5090 31.3980 284° West 419 482 34,000  Level FlightAware ADS-B
Sat 03:24:58 AM 56.5280 31.2590 284° West 418 481 34,000  Level FlightAware ADS-B
Sat 03:25:43 AM 56.5280 31.2590 284° West 400 460 34,000  Level FlightAware ADS-B
Sat 03:26:23 AM 56.5910 31.0000 294° West 389 448 34,000  Level FlightAware ADS-B
Sat 03:27:33 AM 56.6720 30.8170 309° West 379 436 34,000  Level FlightAware ADS-B
Sat 03:28:14 AM 56.7180 30.7190 311° West 382 440 34,000  Level FlightAware ADS-B
Sat 03:29:13 AM 56.7780 30.5600 305° West 386 444 34,000  Level FlightAware ADS-B
Sat 03:29:45 AM 56.8060 30.4840 304° West 384 442 34,000  Level FlightAware ADS-B
Sat 03:30:20 AM 56.8400 30.3920 304° West 384 442 34,000  Level FlightAware ADS-B
Sat 03:31:00 AM 56.8830 30.2770 304° West 383 441 34,000  Level FlightAware ADS-B
Sat 03:31:20 AM 56.9020 30.2250 304° West 384 442 34,000  Level FlightAware ADS-B
Sat 03:31:50 AM 56.9300 30.1480 304° West 385 443 34,000  Level FlightAware ADS-B
Sat 03:32:55 AM 56.9930 29.9750 304° West 386 444 34,000  Level FlightAware ADS-B
Sat 03:33:29 AM 57.0290 29.8760 304° West 386 444 34,000  Level FlightAware ADS-B
Sat 03:34:05 AM 57.0670 29.7710 304° West 384 442 34,000  Level FlightAware ADS-B
Sat 03:34:40 AM 57.1000 29.6790 303° West 383 441 34,000  Level FlightAware ADS-B
Sat 03:35:40 AM 57.1560 29.5210 303° West 381 438 34,000  Level FlightAware ADS-B
Sat 03:36:00 AM 57.1780 29.4610 304° West 381 438 34,000  Level FlightAware ADS-B
Sat 03:37:05 AM 57.2410 29.2830 303° West 382 440 34,000  Level FlightAware ADS-B
Sat 03:38:10 AM 57.3030 29.1060 303° West 383 441 34,000  Level FlightAware ADS-B
Sat 03:38:45 AM 57.3360 29.0110 303° West 385 443 34,000  Level FlightAware ADS-B
Sat 03:39:20 AM 57.3690 28.9190 304° West 386 444 34,000  Level FlightAware ADS-B
Sat 03:40:04 AM 57.4140 28.7880 303° West 387 445 34,000  Level FlightAware ADS-B
Sat 03:40:43 AM 57.4520 28.6790 303° West 386 444 34,000  Level FlightAware ADS-B
Sat 03:41:11 AM 57.4770 28.6050 302° West 386 444 34,000  Level FlightAware ADS-B
Sat 03:41:44 AM 57.5100 28.5100 303° West 386 444 34,000  Level FlightAware ADS-B
Sat 03:42:18 AM 57.5430 28.4140 303° West 386 444 34,000  Level FlightAware ADS-B
Sat 03:42:52 AM 57.5740 28.3230 302° West 385 443 34,000  Level FlightAware ADS-B
Sat 03:44:01 AM 57.6410 28.1250 302° West 387 445 34,000  Level FlightAware ADS-B
Sat 03:44:56 AM 57.6930 27.9690 302° West 385 443 34,000  Level FlightAware ADS-B
Sat 03:46:00 AM 57.7530 27.7890 302° West 388 447 34,000  Level FlightAware ADS-B
Sat 03:47:09 AM 57.8180 27.5920 302° West 391 450 34,000  Level FlightAware ADS-B
Sat 03:47:50 AM 57.8500 27.4640 295° West 404 465 34,000  Level FlightAware ADS-B
Sat 03:48:24 AM 57.8730 27.3500 291° West 404 465 34,000  Level FlightAware ADS-B
Sat 03:48:59 AM 57.8960 27.2380 291° West 405 466 34,000  Level FlightAware ADS-B
Sat 03:49:43 AM 57.9250 27.0920 291° West 404 465 34,000  Level FlightAware ADS-B
Sat 03:50:20 AM 57.9500 26.9710 291° West 403 464 34,000  Level FlightAware ADS-B
Sat 03:51:05 AM 57.9790 26.8230 290° West 403 464 34,000  Level FlightAware ADS-B
Sat 03:51:45 AM 58.0050 26.6930 291° West 402 463 34,000  Level FlightAware ADS-B
Sat 03:52:09 AM 58.0200 26.6160 290° West 401 461 34,000  Level FlightAware ADS-B
Sat 03:52:48 AM 58.0440 26.4910 290° West 401 461 34,000  Level FlightAware ADS-B
Sat 03:53:50 AM 58.0840 26.2860 290° West 399 459 34,000  Level FlightAware ADS-B
Sat 03:54:58 AM 58.1270 26.0640 290° West 399 459 34,000  Level FlightAware ADS-B
Sat 03:55:59 AM 58.1640 25.8640 289° West 399 459 34,000  Level FlightAware ADS-B
Sat 03:56:27 AM 58.1820 25.7700 290° West 402 463 34,000  Level FlightAware ADS-B
Sat 03:57:38 AM 58.2260 25.5340 290° West 402 463 34,000  Level FlightAware ADS-B
Sat 03:58:52 AM 58.2710 25.2910 289° West 402 463 34,000  Level FlightAware ADS-B
Sat 03:59:20 AM 58.2880 25.1960 289° West 401 461 34,000  Level FlightAware ADS-B
Sat 03:59:57 AM 58.3110 25.0730 290° West 400 460 34,000  Level FlightAware ADS-B
Sat 04:00:36 AM 58.3340 24.9440 289° West 400 460 34,000  Level FlightAware ADS-B
Sat 04:01:17 AM 58.3590 24.8050 289° West 399 459 34,000  Level FlightAware ADS-B
Sat 04:02:14 AM 58.3920 24.6180 289° West 398 458 34,000  Level FlightAware ADS-B
Sat 04:02:46 AM 58.4110 24.5130 289° West 399 459 34,000  Level FlightAware ADS-B
Sat 04:03:26 AM 58.4330 24.3780 287° West 402 463 34,000  Level FlightAware ADS-B
Sat 04:04:05 AM 58.4530 24.2440 286° West 403 464 34,000  Level FlightAware ADS-B
Sat 04:04:34 AM 58.4670 24.1460 285° West 402 463 34,000  Level FlightAware ADS-B
Sat 04:05:06 AM 58.4840 24.0360 287° West 402 463 34,000  Level FlightAware ADS-B
Sat 04:05:43 AM 58.5030 23.9080 286° West 402 463 34,000  Level FlightAware ADS-B
Sat 04:06:19 AM 58.5210 23.7860 286° West 403 464 34,000  Level FlightAware ADS-B
Sat 04:06:43 AM 58.5330 23.7040 286° West 402 463 34,000  Level FlightAware ADS-B
Sat 04:07:20 AM 58.5520 23.5770 286° West 402 463 34,000  Level FlightAware ADS-B
Sat 04:08:16 AM 58.5790 23.3860 285° West 404 465 34,000  Level FlightAware ADS-B
Sat 04:08:48 AM 58.5960 23.2730 286° West 405 466 34,000  Level FlightAware ADS-B
Sat 04:09:21 AM 58.6120 23.1600 285° West 406 467 34,000  Level FlightAware ADS-B
Sat 04:09:49 AM 58.6250 23.0630 284° West 406 467 34,000  Level FlightAware ADS-B
Sat 04:10:24 AM 58.6420 22.9430 285° West 408 470 34,000  Level FlightAware ADS-B
Sat 04:11:01 AM 58.6600 22.8130 285° West 407 468 34,000  Level FlightAware ADS-B
Sat 04:11:39 AM 58.6780 22.6860 285° West 408 470 34,000  Level FlightAware ADS-B
Sat 04:12:35 AM 58.7050 22.4860 285° West 408 470 34,000  Level FlightAware ADS-B
Sat 04:13:04 AM 58.7190 22.3850 285° West 407 468 34,000  Level FlightAware ADS-B
Sat 04:14:04 AM 58.7470 22.1740 284° West 405 466 34,000  Level FlightAware ADS-B
Sat 04:14:32 AM 58.7600 22.0780 285° West 404 465 34,000  Level FlightAware ADS-B
Sat 04:15:06 AM 58.7760 21.9600 285° West 404 465 34,000  Level FlightAware ADS-B
Sat 04:16:04 AM 58.8020 21.7570 284° West 404 465 34,000  Level FlightAware ADS-B
Sat 04:16:36 AM 58.8170 21.6450 285° West 403 464 34,000  Level FlightAware ADS-B
Sat 04:17:33 AM 58.8420 21.4480 284° West 404 465 34,000  Level FlightAware ADS-B
Sat 04:18:07 AM 58.8570 21.3280 284° West 404 465 34,000  Level FlightAware ADS-B
Sat 04:18:37 AM 58.8710 21.2230 285° West 402 463 34,000  Level FlightAware ADS-B
Sat 04:19:17 AM 58.8950 21.0890 289° West 400 460 34,000  Level FlightAware ADS-B
Sat 04:19:53 AM 58.9170 20.9650 289° West 399 459 34,000  Level FlightAware ADS-B
Sat 04:20:29 AM 58.9370 20.8430 288° West 399 459 34,000  Level FlightAware ADS-B
Sat 04:21:05 AM 58.9570 20.7230 288° West 399 459 34,000  Level FlightAware ADS-B
Sat 04:21:37 AM 58.9750 20.6130 288° West 398 458 34,000  Level FlightAware ADS-B
Sat 04:22:35 AM 59.0070 20.4160 288° West 396 456 34,000  Level FlightAware ADS-B
Sat 04:23:07 AM 59.0240 20.3080 287° West 396 456 34,000  Level FlightAware ADS-B
Sat 04:23:46 AM 59.0450 20.1740 287° West 398 458 34,000  Level FlightAware ADS-B
Sat 04:24:27 AM 59.0670 20.0360 287° West 400 460 34,000  Level FlightAware ADS-B
Sat 04:24:59 AM 59.0840 19.9270 287° West 401 461 34,000  Level FlightAware ADS-B
Sat 04:25:27 AM 59.1000 19.8290 288° West 402 463 34,000  Level FlightAware ADS-B
Sat 04:26:28 AM 59.1320 19.6160 286° West 402 463 34,000  Level FlightAware ADS-B
Sat 04:26:59 AM 59.1480 19.5130 287° West 403 464 34,000  Level FlightAware ADS-B
Sat 04:27:31 AM 59.1650 19.4010 287° West 404 465 34,000  Level FlightAware ADS-B
Sat 04:28:38 AM 59.2000 19.1690 287° West 404 465 34,000  Level FlightAware ADS-B
Sat 04:29:35 AM 59.2290 18.9780 287° West 403 464 34,000  Level FlightAware ADS-B
Sat 04:30:35 AM 59.2610 18.7580 286° West 402 463 34,000  Level FlightAware ADS-B
Sat 04:31:07 AM 59.2770 18.6450 286° West 403 464 34,000  Level FlightAware ADS-B
Sat 04:31:33 AM 59.2900 18.5550 286° West 404 465 34,000  Level FlightAware ADS-B
Sat 04:32:04 AM 59.3060 18.4470 286° West 404 465 34,000  Level FlightAware ADS-B
Sat 04:32:45 AM 59.3260 18.3040 285° West 403 464 34,000  Level FlightAware ADS-B
Sat 04:33:37 AM 59.3520 18.1190 285° West 403 464 34,000  Level FlightAware ADS-B
Sat 04:34:10 AM 59.3680 18.0080 286° West 403 464 34,000  Level FlightAware ADS-B
Sat 04:34:57 AM 59.3910 17.8410 285° West 403 464 34,000  Level FlightAware ADS-B
Sat 04:35:28 AM 59.4060 17.7310 285° West 403 464 34,000  Level FlightAware ADS-B
Sat 04:36:00 AM 59.4220 17.6170 285° West 402 463 34,000  Level FlightAware ADS-B
Sat 04:36:52 AM 59.4470 17.4330 285° West 402 463 34,000 462 Level FlightAware ADS-B
Sat 04:37:57 AM 59.4770 17.2060 285° West 397 457 34,900 950 Climbing FlightAware ADS-B
Sat 04:38:33 AM 59.4930 17.0810 284° West 392 451 35,600 653 Climbing FlightAware ADS-B
Sat 04:39:38 AM 59.5220 16.8580 284° West 394 453 36,000 190 Climbing FlightAware ADS-B
Sat 04:40:39 AM 59.5500 16.6460 285° West 391 450 36,000  Level FlightAware ADS-B
Sat 04:41:14 AM 59.5650 16.5270 284° West 391 450 36,000  Level FlightAware ADS-B
Sat 04:41:47 AM 59.5790 16.4160 284° West 389 448 36,000  Level FlightAware ADS-B
Sat 04:42:23 AM 59.5950 16.2880 284° West 389 448 36,000  Level FlightAware ADS-B
Sat 04:43:28 AM 59.6230 16.0610 284° West 391 450 36,000  Level FlightAware ADS-B
Sat 04:44:01 AM 59.6370 15.9470 284° West 392 451 36,000  Level FlightAware ADS-B
Sat 04:44:35 AM 59.6510 15.8290 283° West 392 451 36,000  Level FlightAware ADS-B
Sat 04:45:10 AM 59.6650 15.7080 283° West 392 451 36,000  Level FlightAware ADS-B
Sat 04:45:37 AM 59.6760 15.6200 284° West 392 451 36,000  Level FlightAware ADS-B
Sat 04:46:26 AM 59.6960 15.4460 283° West 394 453 36,000  Level FlightAware ADS-B
Sat 04:46:51 AM 59.7060 15.3620 283° West 395 455 36,000  Level FlightAware ADS-B
Sat 04:47:25 AM 59.7200 15.2410 283° West 395 455 36,000  Level FlightAware ADS-B
Sat 04:48:01 AM 59.7350 15.1090 283° West 395 455 36,000  Level FlightAware ADS-B
Sat 04:48:38 AM 59.7500 14.9810 283° West 397 457 36,000  Level FlightAware ADS-B
Sat 04:49:41 AM 59.7750 14.7560 283° West 397 457 36,000  Level FlightAware ADS-B
Sat 04:50:24 AM 59.7920 14.6010 282° West 398 458 36,000  Level FlightAware ADS-B
Sat 04:51:03 AM 59.8070 14.4640 282° West 400 460 36,000  Level FlightAware ADS-B
Sat 04:51:35 AM 59.8200 14.3470 283° West 399 459 36,000  Level FlightAware ADS-B
Sat 04:52:34 AM 59.8420 14.1380 282° West 398 458 36,000  Level FlightAware ADS-B
Sat 04:53:09 AM 59.8560 14.0110 282° West 398 458 36,000  Level FlightAware ADS-B
Sat 04:53:58 AM 59.8740 13.8370 282° West 398 458 36,000  Level FlightAware ADS-B
Sat 04:54:27 AM 59.8850 13.7360 282° West 399 459 36,000  Level FlightAware ADS-B
Sat 04:55:34 AM 59.9090 13.4920 281° West 399 459 36,000  Level FlightAware ADS-B
Sat 04:56:07 AM 59.9210 13.3760 282° West 399 459 36,000  Level FlightAware ADS-B
Sat 04:56:55 AM 59.9400 13.2060 283° West 398 458 36,000  Level FlightAware ADS-B
Sat 04:57:27 AM 59.9580 13.0890 287° West 396 456 36,000  Level FlightAware ADS-B
Sat 04:57:59 AM 59.9750 12.9780 287° West 396 456 36,000  Level FlightAware ADS-B
Sat 04:58:38 AM 59.9950 12.8420 286° West 394 453 36,000  Level FlightAware ADS-B
Sat 04:59:19 AM 60.0160 12.7000 287° West 391 450 36,000  Level FlightAware ADS-B
Sat 04:59:59 AM 60.0360 12.5630 286° West 393 452 36,000  Level FlightAware ADS-B
Sat 05:00:41 AM 60.0580 12.4130 286° West 397 457 36,000  Level FlightAware ADS-B
Sat 05:01:17 AM 60.0750 12.2910 286° West 398 458 36,000  Level FlightAware ADS-B
Sat 05:01:49 AM 60.0920 12.1750 286° West 396 456 36,000  Level FlightAware ADS-B
Sat 05:02:41 AM 60.1180 11.9940 286° West 393 452 36,000  Level FlightAware ADS-B
Sat 05:03:09 AM 60.1320 11.8940 286° West 392 451 36,000  Level FlightAware ADS-B
Sat 05:03:45 AM 60.1490 11.7680 285° West 395 455 36,000  Level FlightAware ADS-B
Sat 05:04:47 AM 60.1790 11.5500 286° West 397 457 36,000  Level FlightAware ADS-B
Sat 05:05:15 AM 60.1930 11.4500 286° West 397 457 36,000  Level FlightAware ADS-B
Sat 05:05:47 AM 60.2080 11.3370 285° West 394 453 36,000  Level FlightAware ADS-B
Sat 05:06:26 AM 60.2270 11.2000 286° West 389 448 36,000  Level FlightAware ADS-B
Sat 05:07:22 AM 60.2530 11.0070 285° West 383 441 36,000  Level FlightAware ADS-B
Sat 05:07:58 AM 60.2680 10.8860 284° West 381 438 36,000  Level FlightAware ADS-B
Sat 05:08:27 AM 60.2810 10.7880 285° West 382 440 36,000  Level FlightAware ADS-B
Sat 05:09:10 AM 60.3010 10.6380 285° West 387 445 36,000  Level FlightAware ADS-B
Sat 05:09:51 AM 60.3190 10.4960 284° West 392 451 36,000  Level FlightAware ADS-B
Sat 05:10:23 AM 60.3340 10.3780 284° West 389 448 36,000  Level FlightAware ADS-B
Sat 05:10:58 AM 60.3490 10.2570 284° West 386 444 36,000  Level FlightAware ADS-B
Sat 05:12:09 AM 60.3800 10.0120 284° West 383 441 36,000  Level FlightAware ADS-B
Sat 05:12:44 AM 60.3950 9.8920 284° West 382 440 36,000  Level FlightAware ADS-B
Sat 05:13:29 AM 60.4140 9.7370 284° West 392 451 36,000  Level FlightAware ADS-B
Sat 05:14:14 AM 60.4330 9.5730 283° West 402 463 36,000  Level FlightAware ADS-B
Sat 05:15:02 AM 60.4540 9.3960 284° West 399 459 36,000  Level FlightAware ADS-B
Sat 05:15:46 AM 60.4730 9.2410 284° West 398 458 36,000  Level FlightAware ADS-B
Sat 05:16:21 AM 60.4870 9.1160 283° West 399 459 36,000  Level FlightAware ADS-B
Sat 05:17:06 AM 60.5070 8.9460 284° West 399 459 36,000  Level FlightAware ADS-B
Sat 05:17:38 AM 60.5200 8.8330 283° West 398 458 36,000  Level FlightAware ADS-B
Sat 05:18:11 AM 60.5330 8.7150 283° West 399 459 36,000  Level FlightAware ADS-B
Sat 05:18:43 AM 60.5470 8.5940 283° West 400 460 36,000  Level FlightAware ADS-B
Sat 05:19:18 AM 60.5610 8.4680 283° West 401 461 36,000  Level FlightAware ADS-B
Sat 05:19:59 AM 60.5770 8.3170 282° West 400 460 36,000  Level FlightAware ADS-B
Sat 05:21:06 AM 60.6040 8.0690 283° West 396 456 36,000  Level FlightAware ADS-B
Sat 05:22:05 AM 60.6270 7.8600 283° West 391 450 36,000  Level FlightAware ADS-B
Sat 05:22:46 AM 60.6420 7.7110 282° West 393 452 36,000  Level FlightAware ADS-B
Sat 05:23:22 AM 60.6563 7.5765 282° West 394 453 36,000  Level FlightAware ADS-B
Sat 05:23:52 AM 60.6674 7.4690 282° West 393 452 36,000  Level FlightAware ADS-B
Sat 05:24:22 AM 60.6787 7.3590 282° West 393 452 36,000  Level FlightAware ADS-B
Sat 05:24:52 AM 60.6894 7.2524 282° West 394 453 36,000  Level FlightAware ADS-B
Sat 05:25:22 AM 60.7004 7.1434 282° West 393 452 36,000  Level FlightAware ADS-B
Sat 05:26:01 AM 60.7145 7.0023 282° West 379 436 36,000  Level FlightAware ADS-B
Sat 05:26:31 AM 60.7248 6.8976 281° West 374 430 36,000  Level FlightAware ADS-B
Sat 05:27:02 AM 60.7351 6.7913 281° West 375 432 36,000  Level FlightAware ADS-B
Sat 05:27:32 AM 60.7452 6.6871 281° West 378 435 36,000  Level FlightAware ADS-B
Sat 05:28:10 AM 60.7579 6.5550 281° West 369 425 36,000  Level FlightAware ADS-B
Sat 05:28:41 AM 60.7678 6.4500 281° West 372 428 36,000  Level FlightAware ADS-B
Sat 05:29:11 AM 60.7775 6.3462 281° West 382 440 36,000  Level FlightAware ADS-B
Sat 05:29:51 AM 60.7909 6.2017 281° West 393 452 36,000  Level FlightAware ADS-B
Sat 05:30:28 AM 60.8034 6.0671 281° West 388 447 36,000  Level FlightAware ADS-B
Sat 05:31:11 AM 60.8176 5.9107 281° West 386 444 36,000  Level FlightAware ADS-B
Sat 05:31:41 AM 60.8272 5.8033 280° West 388 447 36,000  Level FlightAware ADS-B
Sat 05:32:12 AM 60.8369 5.6943 280° West 386 444 36,000  Level FlightAware ADS-B
Sat 05:32:46 AM 60.8470 5.5810 280° West 382 440 36,000  Level FlightAware ADS-B
Sat 05:33:26 AM 60.8600 5.4360 280° West 381 438 36,000  Level FlightAware ADS-B
Sat 05:34:08 AM 60.8720 5.2850 279° West 380 437 36,000  Level FlightAware ADS-B
Sat 05:34:48 AM 60.8850 5.1390 280° West 376 433 36,000  Level FlightAware ADS-B
Sat 05:35:48 AM 60.9020 4.9370 280° West 372 428 36,000  Level FlightAware ADS-B
Sat 05:36:20 AM 60.9110 4.8220 279° West 370 426 36,000  Level FlightAware ADS-B
Sat 05:37:04 AM 60.9230 4.6700 279° West 370 426 36,000  Level FlightAware ADS-B
Sat 05:37:38 AM 60.9330 4.5480 280° West 371 427 36,000  Level FlightAware ADS-B
Sat 05:38:19 AM 60.9440 4.4050 279° West 371 427 36,000  Level FlightAware ADS-B
Sat 05:38:55 AM 60.9540 4.2850 280° West 372 428 36,000  Level FlightAware ADS-B
Sat 05:40:09 AM 60.9730 4.0270 279° West 373 429 36,000  Level FlightAware ADS-B
Sat 05:40:44 AM 60.9830 3.8990 279° West 374 430 36,000  Level FlightAware ADS-B
Sat 05:41:27 AM 60.9940 3.7500 279° West 374 430 36,000  Level FlightAware ADS-B
Sat 05:42:34 AM 61.0110 3.5160 279° West 372 428 36,000  Level FlightAware ADS-B
Sat 05:43:38 AM 61.0270 3.2920 278° West 370 426 36,000  Level FlightAware ADS-B
Sat 05:44:25 AM 61.0380 3.1270 278° West 368 423 36,000  Level FlightAware ADS-B
Sat 05:44:58 AM 61.0460 3.0130 278° West 368 423 36,000  Level FlightAware ADS-B
Sat 05:45:38 AM 61.0550 2.8740 278° West 369 425 36,000  Level FlightAware ADS-B
Sat 05:46:09 AM 61.0620 2.7660 278° West 369 425 36,000  Level FlightAware ADS-B
Sat 05:46:42 AM 61.0700 2.6530 278° West 369 425 36,000  Level FlightAware ADS-B
Sat 05:47:14 AM 61.0770 2.5410 277° West 369 425 36,000  Level FlightAware ADS-B
Sat 05:47:58 AM 61.0860 2.3890 277° West 368 423 36,000  Level FlightAware ADS-B
Sat 05:48:39 AM 61.0950 2.2450 277° West 368 423 36,000  Level FlightAware ADS-B
Sat 05:49:02 AM 61.1000 2.1630 277° West 367 422 36,000  Level FlightAware ADS-B
Sat 05:50:08 AM 61.1140 1.9420 278° West 367 422 36,000  Level FlightAware ADS-B
Sat 05:50:39 AM 61.1200 1.8320 276° West 365 420 36,000  Level FlightAware ADS-B
Sat 05:51:21 AM 61.1290 1.6840 277° West 366 421 36,000  Level FlightAware ADS-B
Sat 05:51:57 AM 61.1360 1.5570 277° West 365 420 36,000  Level FlightAware ADS-B
Sat 05:52:34 AM 61.1430 1.4290 277° West 364 419 36,000  Level FlightAware ADS-B
Sat 05:53:14 AM 61.1500 1.2970 276° West 363 418 36,000  Level FlightAware ADS-B
Sat 05:54:01 AM 61.1590 1.1300 276° West 364 419 36,000  Level FlightAware ADS-B
Sat 05:54:42 AM 61.1670 0.9870 277° West 364 419 36,000  Level FlightAware ADS-B
Sat 05:55:15 AM 61.1720 0.8760 275° West 366 421 36,000  Level FlightAware ADS-B
Sat 05:56:05 AM 61.1810 0.7010 276° West 368 423 36,000  Level FlightAware ADS-B
Sat 05:56:50 AM 61.1890 0.5410 276° West 369 425 36,000  Level FlightAware ADS-B
Sat 05:57:29 AM 61.1960 0.4020 276° West 371 427 36,000  Level FlightAware ADS-B
Sat 05:58:10 AM 61.2030 0.2580 276° West 372 428 36,000  Level FlightAware ADS-B
Sat 05:58:54 AM 61.2110 0.1020 276° West 374 430 36,000  Level FlightAware ADS-B
Sat 05:59:24 AM 61.2220 -0.0060 282° West 385 443 36,000  Level FlightAware ADS-B
Sat 05:59:52 AM 61.2380 -0.1030 289° West 396 456 36,000  Level FlightAware ADS-B
Sat 06:00:59 AM 61.2910 -0.3380 295° West 398 458 36,000  Level FlightAware ADS-B
Sat 06:01:32 AM 61.3160 -0.4490 295° West 395 455 36,000  Level FlightAware ADS-B
Sat 06:02:04 AM 61.3400 -0.5600 294° West 394 453 36,000  Level FlightAware ADS-B
Sat 06:02:35 AM 61.3640 -0.6660 295° West 392 451 36,000  Level FlightAware ADS-B
Sat 06:03:16 AM 61.3950 -0.8080 295° West 393 452 36,000  Level FlightAware ADS-B
Sat 06:03:52 AM 61.4220 -0.9310 295° West 395 455 36,000  Level FlightAware ADS-B
Sat 06:04:26 AM 61.4470 -1.0490 294° West 396 456 36,000  Level FlightAware ADS-B
Sat 06:05:05 AM 61.4760 -1.1830 294° West 397 457 36,000  Level FlightAware ADS-B
Sat 06:05:41 AM 61.5030 -1.3080 294° West 397 457 36,000  Level FlightAware ADS-B
Sat 06:06:40 AM 61.5470 -1.5130 294° West 397 457 36,000  Level FlightAware ADS-B
Sat 06:07:17 AM 61.5740 -1.6420 294° West 398 458 36,000  Level FlightAware ADS-B
Sat 06:07:59 AM 61.6060 -1.7970 294° West 404 465 36,000  Level FlightAware ADS-B
Sat 06:09:09 AM 61.6590 -2.0500 294° West 408 470 36,000  Level FlightAware ADS-B
Sat 06:09:44 AM 61.6840 -2.1730 293° West 411 473 36,000  Level FlightAware ADS-B
Sat 06:10:25 AM 61.7160 -2.3290 293° West 413 475 36,000  Level FlightAware ADS-B
Sat 06:10:55 AM 61.7370 -2.4340 293° West 415 478 36,000  Level FlightAware ADS-B
Sat 06:11:30 AM 61.7640 -2.5660 293° West 418 481 36,000  Level FlightAware ADS-B
Sat 06:12:13 AM 61.7970 -2.7300 293° West 420 483 36,000  Level FlightAware ADS-B
Sat 06:12:33 AM 61.8110 -2.8040 292° West 420 483 36,000  Level FlightAware ADS-B
Sat 06:13:22 AM 61.8490 -2.9930 293° West 418 481 36,000  Level FlightAware ADS-B
Sat 06:13:55 AM 61.8730 -3.1160 293° West 416 479 36,000  Level FlightAware ADS-B
Sat 06:14:25 AM 61.8940 -3.2270 292° West 417 480 36,000  Level FlightAware ADS-B
Sat 06:15:02 AM 61.9220 -3.3690 293° West 418 481 36,000  Level FlightAware ADS-B
Sat 06:15:48 AM 61.9560 -3.5440 293° West 418 481 36,000  Level FlightAware ADS-B
Sat 06:16:42 AM 61.9940 -3.7430 292° West 418 481 36,000  Level FlightAware ADS-B
Sat 06:17:33 AM 62.0240 -3.9100 291° West 418 481 36,000  Level FlightAware ADS-B
Sat 06:18:09 AM 62.0450 -4.0280 291° West 418 481 36,000  Level FlightAware ADS-B
Sat 06:18:45 AM 62.0660 -4.1460 291° West 418 481 36,000  Level FlightAware ADS-B
Sat 06:19:33 AM 62.0940 -4.3030 291° West 418 481 36,000  Level FlightAware ADS-B
Sat 06:20:09 AM 62.1150 -4.4210 291° West 418 481 36,000  Level FlightAware ADS-B
Sat 06:20:45 AM 62.1370 -4.5400 292° West 418 481 36,000  Level FlightAware ADS-B
Sat 06:21:21 AM 62.1890 -4.8020 293° West 398 458 36,000  Level FlightAware ADS-B
Sat 06:22:02 AM 62.2100 -4.9260 290° West 398 458 36,000  Level FlightAware ADS-B
Sat 06:22:38 AM 62.2290 -5.0400 290° West 398 458 36,000  Level FlightAware ADS-B
Sat 06:23:15 AM 62.2490 -5.1570 290° West 398 458 36,000  Level FlightAware ADS-B
Sat 06:23:52 AM 62.2690 -5.2740 290° West 398 458 36,000  Level FlightAware ADS-B
Sat 06:24:29 AM 62.2890 -5.3910 290° West 398 458 36,000  Level FlightAware ADS-B
Sat 06:25:06 AM 62.3080 -5.5080 289° West 398 458 36,000  Level FlightAware ADS-B
Sat 06:25:36 AM 62.3530 -5.7380 293° West 399 459 36,000  Level FlightAware ADS-B
Sat 06:26:25 AM 62.3850 -5.9260 290° West 395 455 36,000  Level FlightAware ADS-B
Sat 06:26:36 AM 62.3910 -5.9650 288° West 396 456 36,000  Level FlightAware ADS-B
Sat 06:27:27 AM 62.4170 -6.1270 289° West 396 456 36,000  Level FlightAware ADS-B
Sat 06:28:05 AM 62.4460 -6.2950 291° West 399 459 36,000  Level FlightAware ADS-B
Sat 06:28:55 AM 62.4720 -6.4560 289° West 399 459 36,000  Level FlightAware ADS-B
Sat 06:29:19 AM 62.4840 -6.5330 289° West 399 459 36,000  Level FlightAware ADS-B
Sat 06:29:55 AM 62.5030 -6.6480 290° West 399 459 36,000  Level FlightAware ADS-B
Sat 06:30:19 AM 62.5150 -6.7250 289° West 399 459 36,000  Level FlightAware ADS-B
Sat 06:31:17 AM 62.5660 -7.0340 290° West 407 468 36,000  Level FlightAware ADS-B
Sat 06:32:12 AM 62.5970 -7.2310 289° West 406 467 36,000  Level FlightAware ADS-B
Sat 06:32:49 AM 62.6150 -7.3530 288° West 406 467 36,000  Level FlightAware ADS-B
Sat 06:33:13 AM 62.6270 -7.4320 288° West 406 467 36,000  Level FlightAware ADS-B
Sat 06:34:02 AM 62.6510 -7.5940 288° West 406 467 36,000  Level FlightAware ADS-B
Sat 06:35:02 AM 62.6810 -7.7930 288° West 406 467 36,000  Level FlightAware ADS-B
Sat 06:35:39 AM 62.6990 -7.9150 288° West 406 467 36,000  Level FlightAware ADS-B
Sat 06:36:24 AM 62.7480 -8.2160 290° West 401 461 36,000  Level FlightAware ADS-B
Sat 06:36:53 AM 62.7620 -8.3130 288° West 401 461 36,000  Level FlightAware ADS-B
Sat 06:37:41 AM 62.7840 -8.4710 287° West 401 461 36,000  Level FlightAware ADS-B
Sat 06:38:18 AM 62.8010 -8.5930 287° West 401 461 36,000  Level FlightAware ADS-B
Sat 06:39:04 AM 62.8220 -8.7450 287° West 401 461 36,000  Level FlightAware ADS-B
Sat 06:39:47 AM 62.8660 -9.0280 289° West 420 483 36,000  Level FlightAware ADS-B
Sat 06:40:30 AM 62.8900 -9.1980 287° West 422 486 36,000  Level FlightAware ADS-B
Sat 06:40:59 AM 62.9070 -9.3190 287° West 423 487 36,000  Level FlightAware ADS-B
Sat 06:41:47 AM 62.9340 -9.5140 287° West 424 488 36,000  Level FlightAware ADS-B
Sat 06:42:26 AM 62.9560 -9.6750 287° West 424 488 36,000  Level FlightAware ADS-B
Sat 06:43:11 AM 62.9820 -9.8650 287° West 425 489 36,000  Level FlightAware ADS-B
Sat 06:44:23 AM 63.0230 -10.1640 287° West 432 497 36,000  Level FlightAware ADS-B
Sat 06:45:01 AM 63.0450 -10.3220 287° West 429 494 36,000  Level FlightAware ADS-B
Sat 06:45:37 AM 63.0650 -10.4710 287° West 425 489 36,000  Level FlightAware ADS-B
Sat 06:46:21 AM 63.0900 -10.6530 287° West 423 487 36,000  Level FlightAware ADS-B
Sat 06:46:57 AM 63.1090 -10.8020 286° West 422 486 36,000  Level FlightAware ADS-B
Sat 06:47:27 AM 63.1260 -10.9270 287° West 423 487 36,000  Level FlightAware ADS-B
Sat 06:48:01 AM 63.1450 -11.0700 286° West 425 489 36,000  Level FlightAware ADS-B
Sat 06:48:37 AM 63.1640 -11.2170 286° West 425 489 36,000  Level FlightAware ADS-B
Sat 06:49:13 AM 63.1830 -11.3680 286° West 425 489 36,000  Level FlightAware ADS-B
Sat 06:49:41 AM 63.1980 -11.4850 286° West 425 489 36,000  Level FlightAware ADS-B
Sat 06:50:25 AM 63.2220 -11.6690 286° West 425 489 36,000  Level FlightAware ADS-B
Sat 06:50:53 AM 63.2360 -11.7860 285° West 428 493 36,000  Level FlightAware ADS-B
Sat 06:51:29 AM 63.2550 -11.9400 285° West 430 495 36,000  Level FlightAware ADS-B
Sat 06:52:39 AM 63.2910 -12.2360 285° West 432 497 36,000  Level FlightAware ADS-B
Sat 06:53:43 AM 63.3250 -12.5130 285° West 433 498 36,000  Level FlightAware ADS-B
Sat 06:54:14 AM 63.3400 -12.6430 284° West 433 498 36,000  Level FlightAware ADS-B
Sat 06:54:59 AM 63.3630 -12.8360 285° West 432 497 36,000  Level FlightAware ADS-B
Sat 06:55:43 AM 63.3850 -13.0270 284° West 434 499 36,000  Level FlightAware ADS-B
Sat 06:56:19 AM 63.4030 -13.1830 285° West 436 502 36,000  Level FlightAware ADS-B
Sat 06:57:00 AM 63.4230 -13.3600 284° West 435 501 36,000  Level FlightAware ADS-B
Sat 06:57:31 AM 63.4380 -13.4980 284° West 436 502 36,000  Level FlightAware ADS-B
Sat 06:58:20 AM 63.4610 -13.7070 284° West 433 498 36,000  Level FlightAware ADS-B
Sat 06:58:51 AM 63.4760 -13.8430 284° West 431 496 36,000  Level FlightAware ADS-B
Sat 06:59:27 AM 63.4930 -14.0000 284° West 432 497 36,000  Level FlightAware ADS-B
Sat 07:00:15 AM 63.5150 -14.2100 283° West 435 501 36,000  Level FlightAware ADS-B
Sat 07:00:55 AM 63.5330 -14.3830 283° West 433 498 36,000  Level FlightAware ADS-B
Sat 07:01:23 AM 63.5460 -14.5040 284° West 433 498 36,000  Level FlightAware ADS-B
Sat 07:01:55 AM 63.5600 -14.6450 283° West 432 497 36,000  Level FlightAware ADS-B
Sat 07:02:31 AM 63.5760 -14.8000 283° West 430 495 36,000  Level FlightAware ADS-B
Sat 07:03:15 AM 63.5960 -14.9920 283° West 431 496 36,000  Level FlightAware ADS-B
Sat 07:03:56 AM 63.6130 -15.1690 282° West 435 501 36,000  Level FlightAware ADS-B
Sat 07:04:41 AM 63.6320 -15.3670 282° West 439 505 36,000  Level FlightAware ADS-B
Sat 07:05:13 AM 63.6460 -15.5130 282° West 436 502 36,000  Level FlightAware ADS-B
Sat 07:06:01 AM 63.6660 -15.7220 282° West 435 501 36,000  Level FlightAware ADS-B
Sat 07:06:35 AM 63.6800 -15.8760 282° West 433 498 36,000  Level FlightAware ADS-B
Sat 07:07:26 AM 63.7010 -16.0970 282° West 431 496 36,000  Level FlightAware ADS-B
Sat 07:08:26 AM 63.7250 -16.3640 282° West 432 497 36,000  Level FlightAware ADS-B
Sat 07:09:26 AM 63.7480 -16.6300 281° West 433 498 36,000  Level FlightAware ADS-B
Sat 07:10:04 AM 63.7630 -16.7960 282° West 431 496 36,000  Level FlightAware ADS-B
Sat 07:10:46 AM 63.7780 -16.9820 280° West 432 497 36,000  Level FlightAware ADS-B
Sat 07:11:04 AM 63.7850 -17.0600 282° West 432 497 36,000  Level FlightAware ADS-B
Sat 07:11:51 AM 63.8020 -17.2640 281° West 431 496 36,000  Level FlightAware ADS-B
Sat 07:12:33 AM 63.8170 -17.4520 280° West 432 497 36,000  Level FlightAware ADS-B
Sat 07:13:09 AM 63.8300 -17.6110 281° West 432 497 36,000  Level FlightAware ADS-B
Sat 07:13:44 AM 63.8420 -17.7640 280° West 431 496 36,000  Level FlightAware ADS-B
Sat 07:14:21 AM 63.8550 -17.9290 280° West 430 495 36,000  Level FlightAware ADS-B
Sat 07:15:01 AM 63.8690 -18.1070 280° West 431 496 36,000  Level FlightAware ADS-B
Sat 07:15:46 AM 63.8840 -18.3050 280° West 430 495 36,000  Level FlightAware ADS-B
Sat 07:16:51 AM 63.9050 -18.5930 280° West 431 496 36,000  Level FlightAware ADS-B
Sat 07:17:26 AM 63.9160 -18.7500 279° West 431 496 36,000  Level FlightAware ADS-B
Sat 07:17:59 AM 63.9270 -18.8990 280° West 431 496 36,000  Level FlightAware ADS-B
Sat 07:18:34 AM 63.9380 -19.0540 279° West 431 496 36,000  Level FlightAware ADS-B
Sat 07:19:19 AM 63.9520 -19.2550 279° West 429 494 36,000  Level FlightAware ADS-B
Sat 07:19:45 AM 63.9590 -19.3700 278° West 430 495 36,000  Level FlightAware ADS-B
Sat 07:20:19 AM 63.9690 -19.5220 279° West 432 497 36,000  Level FlightAware ADS-B
Sat 07:21:05 AM 63.9830 -19.7310 279° West 434 499 36,000  Level FlightAware ADS-B
Sat 07:21:41 AM 63.9930 -19.8930 278° West 437 503 36,000  Level FlightAware ADS-B
Sat 07:22:18 AM 64.0020 -20.0600 277° West 434 499 36,000  Level FlightAware ADS-B
Sat 07:22:57 AM 64.0080 -20.2340 275° West 433 498 36,000  Level FlightAware ADS-B
Sat 07:23:35 AM 64.0140 -20.4120 274° West 431 496 36,000  Level FlightAware ADS-B
Sat 07:24:06 AM 64.0180 -20.5490 274° West 432 497 36,000  Level FlightAware ADS-B
Sat 07:24:47 AM 64.0240 -20.7360 274° West 432 497 36,000  Level FlightAware ADS-B
Sat 07:25:23 AM 64.0290 -20.9050 274° West 434 499 36,000  Level FlightAware ADS-B
Sat 07:25:57 AM 64.0330 -21.0620 273° West 432 497 36,000  Level FlightAware ADS-B
Sat 07:26:44 AM 64.0380 -21.2690 273° West 431 496 36,000  Level FlightAware ADS-B
Sat 07:27:20 AM 64.0420 -21.4260 273° West 434 499 36,000  Level FlightAware ADS-B
Sat 07:27:52 AM 64.0460 -21.5760 274° West 435 501 36,000  Level FlightAware ADS-B
Sat 07:28:35 AM 64.0510 -21.7810 273° West 434 499 36,000  Level FlightAware ADS-B
Sat 07:29:15 AM 64.0540 -21.9550 272° West 432 497 36,000  Level FlightAware ADS-B
Sat 07:29:48 AM 64.0570 -22.1030 273° West 431 496 36,000  Level FlightAware ADS-B
Sat 07:30:23 AM 64.0610 -22.2640 273° West 430 495 36,000 500 Level FlightAware ADS-B
Sat 07:31:00 AM 64.0630 -22.4270 272° West 428 493 36,600 938 Climbing FlightAware ADS-B
Sat 07:31:27 AM 64.0660 -22.5580 273° West 426 490 37,000 381 Climbing FlightAware ADS-B
Sat 07:32:03 AM 64.0680 -22.7130 272° West 431 496 37,000  Level FlightAware ADS-B
Sat 07:32:43 AM 64.0710 -22.8930 272° West 429 494 37,000  Level FlightAware ADS-B
Sat 07:33:25 AM 64.0740 -23.0840 272° West 425 489 37,000  Level FlightAware ADS-B
Sat 07:33:57 AM 64.0760 -23.2280 272° West 424 488 37,000  Level FlightAware ADS-B
Sat 07:34:28 AM 64.0770 -23.3640 271° West 422 486 37,000  Level FlightAware ADS-B
Sat 07:35:09 AM 64.0790 -23.5480 272° West 423 487 37,000  Level FlightAware ADS-B
Sat 07:35:48 AM 64.0810 -23.7220 272° West 424 488 37,000  Level FlightAware ADS-B
Sat 07:36:21 AM 64.0820 -23.8660 271° West 424 488 37,000  Level FlightAware ADS-B
Sat 07:37:21 AM 64.0840 -24.1340 271° West 424 488 37,000  Level FlightAware ADS-B
Sat 07:38:21 AM 64.0850 -24.4100 271° West 425 489 37,000  Level FlightAware ADS-B
Sat 07:38:54 AM 64.0860 -24.5530 271° West 424 488 37,000  Level FlightAware ADS-B
Sat 07:39:30 AM 64.0860 -24.7100 270° West 422 486 37,000  Level FlightAware ADS-B
Sat 07:40:28 AM 64.0860 -24.9760 270° West 422 486 37,000  Level FlightAware ADS-B
Sat 07:41:38 AM 64.0860 -25.2850 270° West 424 488 37,000  Level FlightAware ADS-B
Sat 07:42:17 AM 64.0860 -25.4610 270° West 425 489 37,000  Level FlightAware ADS-B
Sat 07:42:54 AM 64.0850 -25.6270 269° West 425 489 37,000  Level FlightAware ADS-B
Sat 07:43:39 AM 64.0840 -25.8270 269° West 426 490 37,000  Level FlightAware ADS-B
Sat 07:44:03 AM 64.0830 -25.9330 269° West 426 490 37,000  Level FlightAware ADS-B
Sat 07:44:47 AM 64.0820 -26.1320 269° West 427 491 37,000  Level FlightAware ADS-B
Sat 07:45:19 AM 64.0810 -26.2740 269° West 427 491 37,000  Level FlightAware ADS-B
Sat 07:46:00 AM 64.0790 -26.4600 269° West 427 491 37,000  Level FlightAware ADS-B
Sat 07:46:32 AM 64.0770 -26.6030 268° West 426 490 37,000  Level FlightAware ADS-B
Sat 07:47:07 AM 64.0760 -26.7590 269° West 425 489 37,000  Level FlightAware ADS-B
Sat 07:47:40 AM 64.0740 -26.9110 268° West 425 489 37,000  Level FlightAware ADS-B
Sat 07:48:15 AM 64.0720 -27.0640 268° West 425 489 37,000  Level FlightAware ADS-B
Sat 07:48:56 AM 64.0690 -27.2510 268° West 427 491 37,000  Level FlightAware ADS-B
Sat 07:49:36 AM 64.0660 -27.4270 268° West 426 490 37,000  Level FlightAware ADS-B
Sat 07:50:07 AM 64.0640 -27.5640 268° West 425 489 37,000  Level FlightAware ADS-B
Sat 07:50:43 AM 64.0610 -27.7280 268° West 424 488 37,000  Level FlightAware ADS-B
Sat 07:51:20 AM 64.0580 -27.8920 268° West 425 489 37,000  Level FlightAware ADS-B
Sat 07:51:52 AM 64.0550 -28.0350 267° West 424 488 37,000  Level FlightAware ADS-B
Sat 07:52:36 AM 64.0510 -28.2260 267° West 425 489 37,000  Level FlightAware ADS-B
Sat 07:53:13 AM 64.0470 -28.3890 267° West 425 489 37,000  Level FlightAware ADS-B
Sat 07:53:44 AM 64.0430 -28.5350 266° West 423 487 37,000  Level FlightAware ADS-B
Sat 07:54:29 AM 64.0380 -28.7360 267° West 424 488 37,000  Level FlightAware ADS-B
Sat 07:55:01 AM 64.0350 -28.8800 267° West 424 488 37,000  Level FlightAware ADS-B
Sat 07:55:38 AM 64.0300 -29.0440 266° West 424 488 37,000  Level FlightAware ADS-B
Sat 07:56:09 AM 64.0260 -29.1790 266° West 424 488 37,000  Level FlightAware ADS-B
Sat 07:56:46 AM 64.0210 -29.3440 266° West 424 488 37,000  Level FlightAware ADS-B
Sat 07:57:14 AM 64.0180 -29.4700 267° West 426 490 37,000  Level FlightAware ADS-B
Sat 07:57:58 AM 64.0110 -29.6670 265° West 426 490 37,000  Level FlightAware ADS-B
Sat 07:58:28 AM 64.0070 -29.8040 266° West 427 491 37,000  Level FlightAware ADS-B
Sat 07:58:59 AM 64.0020 -29.9390 265° West 425 489 37,000  Level FlightAware ADS-B
Sat 07:59:35 AM 63.9940 -30.0930 263° West 423 487 37,000  Level FlightAware ADS-B
Sat 08:00:14 AM 63.9830 -30.2700 262° West 425 489 37,000  Level FlightAware ADS-B
Sat 08:01:11 AM 63.9670 -30.5210 262° West 425 489 37,000  Level FlightAware ADS-B
Sat 08:02:10 AM 63.9490 -30.7810 261° West 427 491 37,000  Level FlightAware ADS-B
Sat 08:02:59 AM 63.9340 -30.9980 261° West 428 493 37,000  Level FlightAware ADS-B
Sat 08:03:26 AM 63.9260 -31.1200 262° West 429 494 37,000  Level FlightAware ADS-B
Sat 08:04:03 AM 63.9140 -31.2790 260° West 429 494 37,000  Level FlightAware ADS-B
Sat 08:04:43 AM 63.9020 -31.4530 261° West 427 491 37,000  Level FlightAware ADS-B
Sat 08:05:16 AM 63.8920 -31.5880 261° West 427 491 37,000  Level FlightAware ADS-B
Sat 08:05:50 AM 63.8820 -31.7160 260° West 427 491 37,000  Level FlightAware ADS-B
Sat 08:06:26 AM 63.8710 -31.8510 260° West 427 491 37,000  Level FlightAware ADS-B
Sat 08:07:26 AM 63.8540 -32.0760 260° West 427 491 37,000  Level FlightAware ADS-B
Sat 08:08:38 AM 63.8330 -32.3460 260° West 427 491 37,000  Level FlightAware ADS-B
Sat 08:09:26 AM 63.8190 -32.5260 260° West 427 491 37,000  Level FlightAware ADS-B
Sat 08:10:14 AM 63.8050 -32.7060 260° West 427 491 37,000  Level FlightAware ADS-B
Sat 08:10:38 AM 63.7980 -32.7960 260° West 427 491 37,000  Level FlightAware ADS-B
Sat 08:11:36 AM 63.7810 -33.0130 260° West 427 491 37,000  Level FlightAware ADS-B
Sat 08:12:22 AM 63.7670 -33.1850 260° West 427 491 37,000  Level FlightAware ADS-B
Sat 08:13:10 AM 63.7530 -33.3650 260° West 427 491 37,000  Level FlightAware ADS-B
Sat 08:13:46 AM 63.7430 -33.4990 260° West 427 491 37,000  Level FlightAware ADS-B
Sat 08:14:22 AM 63.7320 -33.6340 260° West 427 491 37,000  Level FlightAware ADS-B
Sat 08:14:46 AM 63.7250 -33.7240 260° West 427 491 37,000  Level FlightAware ADS-B
Sat 08:18:00 AM 63.5484 -34.4323 241° Southwest  Level Estimated
Sat 08:19:00 AM 63.4930 -34.6496 240° Southwest  Level Estimated
Sat 08:20:00 AM 63.4374 -34.8660 240° Southwest  Level Estimated
Sat 08:21:00 AM 63.3814 -35.0816 240° Southwest  Level Estimated
Sat 08:22:00 AM 63.3251 -35.2964 240° Southwest  Level Estimated
Sat 08:23:00 AM 63.2685 -35.5103 240° Southwest  Level Estimated
Sat 08:24:00 AM 63.2115 -35.7233 239° Southwest  Level Estimated
Sat 08:25:00 AM 63.1542 -35.9356 239° Southwest  Level Estimated
Sat 08:26:00 AM 63.0966 -36.1470 239° Southwest  Level Estimated
Sat 08:27:00 AM 63.0387 -36.3575 239° Southwest  Level Estimated
Sat 08:28:00 AM 62.9805 -36.5672 239° Southwest  Level Estimated
Sat 08:29:00 AM 62.9220 -36.7761 238° Southwest  Level Estimated
Sat 08:30:00 AM 62.8632 -36.9842 238° Southwest  Level Estimated
Sat 08:31:00 AM 62.8041 -37.1914 238° Southwest  Level Estimated
Sat 08:32:00 AM 62.7446 -37.3978 238° Southwest  Level Estimated
Sat 08:33:00 AM 62.6849 -37.6033 238° Southwest  Level Estimated
Sat 08:34:00 AM 62.6249 -37.8080 238° Southwest  Level Estimated
Sat 08:35:00 AM 62.5645 -38.0119 237° Southwest  Level Estimated
Sat 08:36:00 AM 62.5039 -38.2150 237° Southwest  Level Estimated
Sat 08:37:00 AM 62.4430 -38.4172 237° Southwest  Level Estimated
Sat 08:38:00 AM 62.3818 -38.6186 237° Southwest  Level Estimated
Sat 08:39:00 AM 62.3203 -38.8192 237° Southwest  Level Estimated
Sat 08:40:00 AM 62.2585 -39.0190 236° Southwest  Level Estimated
Sat 08:41:00 AM 62.1964 -39.2179 236° Southwest  Level Estimated
Sat 08:42:00 AM 62.1341 -39.4161 236° Southwest  Level Estimated
Sat 08:43:00 AM 62.0714 -39.6134 236° Southwest  Level Estimated
Sat 08:44:00 AM 62.0085 -39.8099 236° Southwest  Level Estimated
Sat 08:45:00 AM 61.9453 -40.0056 236° Southwest  Level Estimated
Sat 08:46:00 AM 61.8818 -40.2005 235° Southwest  Level Estimated
Sat 08:47:00 AM 61.8181 -40.3945 235° Southwest  Level Estimated
Sat 08:48:00 AM 61.7541 -40.5878 235° Southwest  Level Estimated
Sat 08:49:00 AM 61.6898 -40.7802 235° Southwest  Level Estimated
Sat 08:50:00 AM 61.6252 -40.9719 235° Southwest  Level Estimated
Sat 08:51:00 AM 61.5604 -41.1628 235° Southwest  Level Estimated
Sat 08:52:00 AM 61.4953 -41.3528 234° Southwest  Level Estimated
Sat 08:53:00 AM 61.4299 -41.5421 234° Southwest  Level Estimated
Sat 08:54:00 AM 61.3643 -41.7306 234° Southwest  Level Estimated
Sat 08:55:00 AM 61.2984 -41.9182 234° Southwest  Level Estimated
Sat 08:56:00 AM 61.2323 -42.1051 234° Southwest  Level Estimated
Sat 08:57:00 AM 61.1659 -42.2912 234° Southwest  Level Estimated
Sat 08:58:00 AM 61.0992 -42.4766 233° Southwest  Level Estimated
Sat 08:59:00 AM 61.0323 -42.6611 233° Southwest  Level Estimated
Sat 09:00:00 AM 60.9652 -42.8449 233° Southwest  Level Estimated
Sat 09:01:00 AM 60.8978 -43.0279 233° Southwest  Level Estimated
Sat 09:02:00 AM 60.8301 -43.2101 233° Southwest  Level Estimated
Sat 09:03:00 AM 60.7622 -43.3915 233° Southwest  Level Estimated
Sat 09:04:00 AM 60.6941 -43.5722 232° Southwest  Level Estimated
Sat 09:05:00 AM 60.6257 -43.7521 232° Southwest  Level Estimated
Sat 09:06:00 AM 60.5571 -43.9313 232° Southwest  Level Estimated
Sat 09:07:00 AM 60.4883 -44.1097 232° Southwest  Level Estimated
Sat 09:08:00 AM 60.4192 -44.2873 232° Southwest  Level Estimated
Sat 09:09:00 AM 60.3498 -44.4642 232° Southwest  Level Estimated
Sat 09:10:00 AM 60.2803 -44.6403 232° Southwest  Level Estimated
Sat 09:11:00 AM 60.2105 -44.8157 231° Southwest  Level Estimated
Sat 09:12:00 AM 60.1404 -44.9903 231° Southwest  Level Estimated
Sat 09:13:00 AM 60.0702 -45.1642 231° Southwest  Level Estimated
Sat 09:14:00 AM 59.9997 -45.3374 231° Southwest  Level Estimated
Sat 09:14:00 AM 62.1420 -48.9520 231° Southwest 425 489 37,000  Level FlightAware ADS-B
Sat 09:14:50 AM 62.1150 -49.1600 255° West 425 489 37,000  Level FlightAware ADS-B
Sat 09:15:25 AM 62.0970 -49.2970 254° West 423 487 37,000  Level FlightAware ADS-B
Sat 09:16:02 AM 62.0760 -49.4470 253° West 423 487 37,000  Level FlightAware ADS-B
Sat 09:16:40 AM 62.0580 -49.5790 254° West 423 487 37,000  Level FlightAware ADS-B
Sat 09:17:16 AM 62.0400 -49.7020 253° West 423 487 37,000  Level FlightAware ADS-B
Sat 09:17:52 AM 62.0230 -49.8240 254° West 423 487 37,000  Level FlightAware ADS-B
Sat 09:18:28 AM 62.0050 -49.9460 253° West 423 487 37,000  Level FlightAware ADS-B
Sat 09:19:07 AM 61.9680 -50.1800 251° West 428 493 37,000  Level FlightAware ADS-B
Sat 09:19:38 AM 61.9470 -50.3030 250° West 427 491 37,000  Level FlightAware ADS-B
Sat 09:20:25 AM 61.9140 -50.4860 249° West 427 491 37,000  Level FlightAware ADS-B
Sat 09:20:59 AM 61.8890 -50.6230 249° West 426 490 37,000  Level FlightAware ADS-B
Sat 09:21:46 AM 61.8560 -50.8050 249° West 428 493 37,000  Level FlightAware ADS-B
Sat 09:22:25 AM 61.8310 -50.9340 248° West 428 493 37,000  Level FlightAware ADS-B
Sat 09:22:59 AM 61.8030 -51.0910 249° West 428 493 37,000  Level FlightAware ADS-B
Sat 09:23:31 AM 61.7800 -51.2130 248° West 432 497 37,000  Level FlightAware ADS-B
Sat 09:24:22 AM 61.7470 -51.3830 248° West 432 497 37,000  Level FlightAware ADS-B
Sat 09:24:56 AM 61.7260 -51.4960 249° West 432 497 37,000  Level FlightAware ADS-B
Sat 09:25:23 AM 61.6980 -51.6480 249° West 432 497 37,000  Level FlightAware ADS-B
Sat 09:26:06 AM 61.6650 -51.8170 248° West 430 495 37,000  Level FlightAware ADS-B
Sat 09:26:39 AM 61.6440 -51.9240 248° West 429 494 37,000  Level FlightAware ADS-B
Sat 09:27:13 AM 61.6160 -52.0730 248° West 428 493 37,000  Level FlightAware ADS-B
Sat 09:27:42 AM 61.5940 -52.1830 247° West 429 494 37,000  Level FlightAware ADS-B
Sat 09:28:16 AM 61.5680 -52.3130 247° West 429 494 37,000  Level FlightAware ADS-B
Sat 09:28:55 AM 61.5430 -52.4400 248° West 429 494 37,000  Level FlightAware ADS-B
Sat 09:29:43 AM 61.5110 -52.5970 247° West 429 494 37,000  Level FlightAware ADS-B
Sat 09:30:19 AM 61.4870 -52.7140 247° West 429 494 37,000  Level FlightAware ADS-B
Sat 09:31:27 AM 61.4250 -53.0180 247° West 431 496 37,000  Level FlightAware ADS-B
Sat 09:32:04 AM 61.4000 -53.1370 246° West 431 496 37,000  Level FlightAware ADS-B
Sat 09:32:40 AM 61.3750 -53.2540 246° West 431 496 37,000  Level FlightAware ADS-B
Sat 09:33:28 AM 61.3420 -53.4090 246° West 431 496 37,000  Level FlightAware ADS-B
Sat 09:34:28 AM 61.3000 -53.6020 246° West 431 496 37,000  Level FlightAware ADS-B
Sat 09:35:14 AM 61.2690 -53.7510 247° West 431 496 37,000  Level FlightAware ADS-B
Sat 09:35:38 AM 61.2520 -53.8280 245° Southwest 431 496 37,000  Level FlightAware ADS-B
Sat 09:36:26 AM 61.2190 -53.9820 246° West 431 496 37,000  Level FlightAware ADS-B
Sat 09:37:39 AM 61.1690 -54.2170 246° West 431 496 37,000  Level FlightAware ADS-B
Sat 09:38:15 AM 61.1440 -54.3320 246° West 431 496 37,000  Level FlightAware ADS-B
Sat 09:38:51 AM 61.1190 -54.4480 246° West 431 496 37,000  Level FlightAware ADS-B
Sat 09:39:51 AM 61.0780 -54.6400 246° West 431 496 37,000  Level FlightAware ADS-B
Sat 09:40:27 AM 61.0530 -54.7550 246° West 431 496 37,000  Level FlightAware ADS-B
Sat 09:40:39 AM 61.0440 -54.7940 245° Southwest 431 496 37,000  Level FlightAware ADS-B
Sat 09:44:00 AM 60.7973 -55.3719 222° Southwest  Level FlightAware Approximate
Sat 09:45:00 AM 60.7123 -55.5261 222° Southwest  Level FlightAware Approximate
Sat 09:46:00 AM 60.6270 -55.6795 221° Southwest  Level FlightAware Approximate
Sat 09:47:00 AM 60.5416 -55.8321 221° Southwest  Level FlightAware Approximate
Sat 09:48:00 AM 60.4560 -55.9838 221° Southwest  Level FlightAware Approximate
Sat 09:49:00 AM 60.3702 -56.1348 221° Southwest  Level FlightAware Approximate
Sat 09:50:00 AM 60.2842 -56.2850 221° Southwest  Level FlightAware Approximate
Sat 09:51:00 AM 60.1981 -56.4343 221° Southwest  Level FlightAware Approximate
Sat 09:52:00 AM 60.1118 -56.5829 221° Southwest  Level FlightAware Approximate
Sat 09:53:00 AM 60.0254 -56.7308 221° Southwest  Level FlightAware Approximate
Sat 09:54:00 AM 59.9388 -56.8778 220° Southwest  Level FlightAware Approximate
Sat 09:55:00 AM 59.8520 -57.0241 220° Southwest  Level FlightAware Approximate
Sat 09:56:00 AM 59.7653 -57.1702 220° Southwest  Level FlightAware Approximate
Sat 09:57:00 AM 59.6785 -57.3158 220° Southwest  Level FlightAware Approximate
Sat 09:58:00 AM 59.5917 -57.4607 220° Southwest  Level FlightAware Approximate
Sat 09:59:00 AM 59.5046 -57.6049 220° Southwest  Level FlightAware Approximate
Sat 10:00:00 AM 59.4174 -57.7483 220° Southwest  Level FlightAware Approximate
Sat 10:01:00 AM 59.3301 -57.8909 220° Southwest  Level FlightAware Approximate
Sat 10:02:00 AM 59.2425 -58.0329 220° Southwest  Level FlightAware Approximate
Sat 10:03:00 AM 59.1549 -58.1741 220° Southwest  Level FlightAware Approximate
Sat 10:04:00 AM 59.0671 -58.3146 219° Southwest  Level FlightAware Approximate
Sat 10:05:00 AM 58.9791 -58.4543 219° Southwest  Level FlightAware Approximate
Sat 10:06:00 AM 58.8910 -58.5934 219° Southwest  Level FlightAware Approximate
Sat 10:07:00 AM 58.8027 -58.7318 219° Southwest  Level FlightAware Approximate
Sat 10:08:00 AM 58.7143 -58.8694 219° Southwest  Level FlightAware Approximate
Sat 10:09:00 AM 58.6257 -59.0064 219° Southwest  Level FlightAware Approximate
Sat 10:10:00 AM 58.5370 -59.1426 219° Southwest  Level FlightAware Approximate
Sat 10:11:00 AM 58.4481 -59.2780 218° Southwest  Level FlightAware Approximate
Sat 10:12:00 AM 58.3587 -59.4120 218° Southwest  Level FlightAware Approximate
Sat 10:13:00 AM 58.2692 -59.5453 218° Southwest  Level FlightAware Approximate
Sat 10:14:00 AM 58.1796 -59.6779 218° Southwest  Level FlightAware Approximate
Sat 10:15:00 AM 58.0898 -59.8099 218° Southwest  Level FlightAware Approximate
Sat 10:16:00 AM 57.9990 -59.9388 214° Southwest  Level FlightAware Approximate
Sat 10:17:00 AM 57.9041 -60.0568 213° Southwest  Level FlightAware Approximate
Sat 10:18:00 AM 57.8092 -60.1741 213° Southwest  Level FlightAware Approximate
Sat 10:19:00 AM 57.7141 -60.2909 213° Southwest  Level FlightAware Approximate
Sat 10:20:00 AM 57.6190 -60.4070 213° Southwest  Level FlightAware Approximate
Sat 10:21:00 AM 57.5237 -60.5226 213° Southwest  Level FlightAware Approximate
Sat 10:22:00 AM 57.4283 -60.6375 213° Southwest  Level FlightAware Approximate
Sat 10:23:00 AM 57.3329 -60.7518 213° Southwest  Level FlightAware Approximate
Sat 10:24:00 AM 57.2373 -60.8656 213° Southwest  Level FlightAware Approximate
Sat 10:24:58 AM 56.7333 -61.4500 212° Southwest 390 449 37,000  Level Moncton Center
Sat 10:25:00 AM 57.1416 -60.9787 213° Southwest  Level FlightAware Approximate
Sat 10:25:41 AM 56.6667 -61.5333 214° Southwest 430 495 37,000  Level Gander Center
Sat 10:26:00 AM 57.0458 -61.0913 213° Southwest  Level FlightAware Approximate
Sat 10:26:41 AM 56.5500 -61.6500 209° Southwest 440 506 37,000  Level Gander Center
Sat 10:27:00 AM 56.9499 -61.2033 213° Southwest  Level FlightAware Approximate
Sat 10:27:41 AM 56.4500 -61.7333 205° Southwest 440 506 37,000  Level Gander Center
Sat 10:28:41 AM 56.3333 -61.8500 209° Southwest 440 506 37,000  Level Gander Center
Sat 10:29:41 AM 56.2333 -61.9500 209° Southwest 440 506 37,000  Level Gander Center
Sat 10:30:00 AM 56.6619 -61.5364 212° Southwest  Level FlightAware Approximate
Sat 10:30:41 AM 56.1167 -62.0667 209° Southwest 450 518 37,000  Level Gander Center
Sat 10:31:41 AM 56.0167 -62.1500 205° Southwest 440 506 37,000  Level Gander Center
Sat 10:32:40 AM 55.9000 -62.2667 209° Southwest 440 506 37,000  Level Gander Center
Sat 10:33:40 AM 55.8000 -62.3500 205° Southwest 450 518 37,000  Level Gander Center
Sat 10:34:40 AM 55.6833 -62.4667 209° Southwest 440 506 37,000  Level Gander Center
Sat 10:35:40 AM 55.5667 -62.5500 202° Southwest 450 518 37,000  Level Gander Center
Sat 10:36:40 AM 55.4667 -62.6667 213° Southwest 450 518 37,000  Level Gander Center
Sat 10:37:41 AM 55.3500 -62.7500 202° Southwest 450 518 37,000  Level Gander Center
Sat 10:38:40 AM 55.2333 -62.8333 202° Southwest 450 518 37,000  Level Gander Center
Sat 10:39:40 AM 55.1167 -62.9500 210° Southwest 440 506 37,000  Level Gander Center
Sat 10:40:41 AM 55.0000 -63.0333 202° Southwest 450 518 37,000  Level Gander Center
Sat 10:41:41 AM 54.8833 -63.1167 202° Southwest 450 518 37,000  Level Gander Center
Sat 10:42:41 AM 54.7833 -63.2000 206° Southwest 450 518 37,000  Level Gander Center
Sat 10:43:41 AM 54.6667 -63.2833 202° Southwest 440 506 37,000  Level Gander Center
Sat 10:44:40 AM 54.5500 -63.3500 198° South 450 518 37,000  Level Gander Center
Sat 10:45:40 AM 54.4333 -63.4333 203° Southwest 450 518 37,000  Level Gander Center
Sat 10:46:40 AM 54.3167 -63.5167 203° Southwest 450 518 37,000  Level Gander Center
Sat 10:47:40 AM 54.2167 -63.6000 206° Southwest 450 518 37,000  Level Gander Center
Sat 10:48:40 AM 54.0833 -63.6833 200° South 440 506 37,000  Level Gander Center
Sat 10:49:40 AM 53.9667 -63.7500 199° South 450 518 37,000  Level Gander Center
Sat 10:50:40 AM 53.8500 -63.8667 211° Southwest 460 529 37,000  Level Gander Center
Sat 10:51:40 AM 53.7333 -63.9333 199° South 450 518 37,000  Level Gander Center
Sat 10:52:40 AM 53.6333 -64.0167 206° Southwest 450 518 37,000  Level Gander Center
Sat 10:53:40 AM 53.5167 -64.1000 203° Southwest 450 518 37,000  Level Gander Center
Sat 10:54:40 AM 53.4000 -64.1667 199° South 460 529 37,000  Level Gander Center
Sat 10:55:40 AM 53.2833 -64.2500 203° Southwest 450 518 37,000  Level Gander Center
Sat 10:56:40 AM 53.1667 -64.3167 199° South 450 518 37,000  Level Gander Center
Sat 10:57:40 AM 53.0333 -64.4167 204° Southwest 460 529 37,000  Level Gander Center
Sat 10:58:40 AM 52.9333 -64.5000 207° Southwest 450 518 37,000  Level Gander Center
Sat 10:59:40 AM 52.8000 -64.5667 197° South 460 529 37,000  Level Gander Center
Sat 11:00:40 AM 52.7000 -64.6500 207° Southwest 460 529 37,000  Level Gander Center
Sat 11:01:40 AM 52.5833 -64.7167 199° South 450 518 37,000  Level Gander Center
Sat 11:02:40 AM 52.4500 -64.8167 205° Southwest 450 518 37,000  Level Gander Center
Sat 11:03:40 AM 52.3333 -64.8667 195° South 440 506 37,000  Level Gander Center
Sat 11:04:40 AM 52.2333 -64.9500 207° Southwest 440 506 37,000  Level Gander Center
Sat 11:05:40 AM 52.1167 -65.0333 204° Southwest 440 506 37,000  Level Gander Center
Sat 11:06:40 AM 52.0167 -65.0833 197° South 430 495 37,000  Level Gander Center
Sat 11:07:40 AM 51.9000 -65.1500 199° South 420 483 37,000  Level Gander Center
Sat 11:08:40 AM 51.8000 -65.2333 207° Southwest 420 483 37,000  Level Gander Center
Sat 11:09:58 AM 51.6500 -65.3167 199° South 420 483 37,000  Level Moncton Center
Sat 11:10:58 AM 51.5333 -65.4000 204° Southwest 420 483 37,000  Level Moncton Center
Sat 11:11:40 AM 51.4500 -65.4500 201° Southwest 420 483 37,000  Level Gander Center
Sat 11:12:40 AM 51.3500 -65.5167 203° Southwest 420 483 37,000  Level Gander Center
Sat 11:13:40 AM 51.2500 -65.5833 203° Southwest 420 483 37,000  Level Gander Center
Sat 11:14:40 AM 51.1167 -65.6500 197° South 420 483 37,000  Level Gander Center
Sat 11:15:40 AM 51.0167 -65.7167 203° Southwest 420 483 37,000  Level Gander Center
Sat 11:16:40 AM 50.9000 -65.7833 200° South 420 483 37,000  Level Gander Center
Sat 11:17:40 AM 50.8000 -65.8667 208° Southwest 430 495 37,000  Level Gander Center
Sat 11:18:40 AM 50.7000 -65.9333 203° Southwest 430 495 37,000  Level Gander Center
Sat 11:19:40 AM 50.5833 -65.9667 190° South 420 483 37,000  Level Gander Center
Sat 11:20:40 AM 50.4667 -66.0333 200° South 420 483 37,000  Level Gander Center
Sat 11:21:40 AM 50.3500 -66.1000 200° South 420 483 37,000  Level Gander Center
Sat 11:22:40 AM 50.2500 -66.1667 203° Southwest 420 483 37,000 155 Level Gander Center
Sat 11:28:08 AM 49.6530 -66.5360 203° Southwest 432 497 38,000 163 Climbing FlightAware ADS-B
Sat 11:28:47 AM 49.5780 -66.5790 200° South 433 498 38,000  Level FlightAware ADS-B
Sat 11:29:18 AM 49.5170 -66.6140 200° South 435 501 38,000  Level FlightAware ADS-B
Sat 11:29:51 AM 49.4560 -66.6490 200° South 435 501 38,000  Level FlightAware ADS-B
Sat 11:30:30 AM 49.3820 -66.6900 200° South 437 503 38,000  Level FlightAware ADS-B
Sat 11:31:03 AM 49.3210 -66.7250 201° Southwest 438 504 38,000  Level FlightAware ADS-B
Sat 11:31:35 AM 49.2590 -66.7600 200° South 437 503 38,000  Level FlightAware ADS-B
Sat 11:32:06 AM 49.2010 -66.7940 201° Southwest 438 504 38,000  Level FlightAware ADS-B
Sat 11:33:06 AM 49.0860 -66.8580 200° South 438 504 38,000  Level FlightAware ADS-B
Sat 11:33:56 AM 48.9920 -66.9110 200° South 436 502 38,000  Level FlightAware ADS-B
Sat 11:34:57 AM 48.8770 -66.9740 200° South 433 498 38,000  Level FlightAware ADS-B
Sat 11:36:08 AM 48.7440 -67.0480 200° South 435 501 38,000  Level FlightAware ADS-B
Sat 11:36:51 AM 48.6620 -67.0940 200° South 435 501 38,000  Level FlightAware ADS-B
Sat 11:37:26 AM 48.5970 -67.1300 200° South 434 499 38,000  Level FlightAware ADS-B
Sat 11:38:31 AM 48.4740 -67.1970 200° South 431 496 38,000  Level FlightAware ADS-B
Sat 11:39:01 AM 48.4180 -67.2280 200° South 431 496 38,000  Level FlightAware ADS-B
Sat 11:39:34 AM 48.3550 -67.2610 199° South 430 495 38,000  Level FlightAware ADS-B
Sat 11:40:08 AM 48.2920 -67.2960 200° South 430 495 38,000  Level FlightAware ADS-B
Sat 11:40:43 AM 48.2260 -67.3320 200° South 432 497 38,000  Level FlightAware ADS-B
Sat 11:41:43 AM 48.1160 -67.3910 200° South 434 499 38,000  Level FlightAware ADS-B
Sat 11:42:16 AM 48.0500 -67.4260 200° South 434 499 38,000  Level FlightAware ADS-B
Sat 11:42:46 AM 47.9930 -67.4570 200° South 433 498 38,000  Level FlightAware ADS-B
Sat 11:43:24 AM 47.9220 -67.4950 200° South 432 497 38,000  Level FlightAware ADS-B
Sat 11:43:52 AM 47.8700 -67.5230 200° South 432 497 38,000  Level FlightAware ADS-B
Sat 11:44:37 AM 47.7930 -67.5630 199° South 432 497 38,000  Level FlightAware ADS-B
Sat 11:45:25 AM 47.7160 -67.6030 199° South 432 497 38,000  Level FlightAware ADS-B
Sat 11:46:01 AM 47.6580 -67.6320 199° South 432 497 38,000  Level FlightAware ADS-B
Sat 11:46:44 AM 47.5490 -67.6930 201° Southwest 436 502 38,000  Level FlightAware ADS-B
Sat 11:47:25 AM 47.4690 -67.7350 200° South 435 501 38,000  Level FlightAware ADS-B
Sat 11:48:19 AM 47.3790 -67.7810 199° South 435 501 38,000  Level FlightAware ADS-B
Sat 11:49:20 AM 47.2510 -67.8490 200° South 433 498 38,000  Level FlightAware ADS-B
Sat 11:50:01 AM 47.1710 -67.8910 200° South 433 498 38,000  Level FlightAware ADS-B
Sat 11:50:38 AM 47.1030 -67.9260 199° South 433 498 38,000  Level FlightAware ADS-B
Sat 11:51:10 AM 47.0410 -67.9580 199° South 433 498 38,000  Level FlightAware ADS-B
Sat 11:51:45 AM 46.9760 -67.9910 199° South 433 498 38,000  Level FlightAware ADS-B
Sat 11:52:46 AM 46.8610 -68.0510 200° South 435 501 38,000  Level FlightAware ADS-B
Sat 11:53:53 AM 46.7360 -68.1240 202° Southwest 431 496 38,000  Level FlightAware ADS-B
Sat 11:54:26 AM 46.6790 -68.1700 209° Southwest 429 494 38,000  Level FlightAware ADS-B
Sat 11:55:02 AM 46.6150 -68.2220 209° Southwest 428 493 38,000  Level FlightAware ADS-B
Sat 11:55:34 AM 46.5590 -68.2670 209° Southwest 429 494 38,000  Level FlightAware ADS-B
Sat 11:56:03 AM 46.5090 -68.3070 209° Southwest 430 495 38,000  Level FlightAware ADS-B
Sat 11:56:40 AM 46.4460 -68.3570 209° Southwest 431 496 38,000  Level FlightAware ADS-B
Sat 11:57:41 AM 46.3400 -68.4410 209° Southwest 430 495 38,000  Level FlightAware ADS-B
Sat 11:58:47 AM 46.2240 -68.5330 209° Southwest 430 495 38,000  Level FlightAware ADS-B
Sat 11:59:16 AM 46.1790 -68.5680 208° Southwest 430 495 38,000  Level FlightAware ADS-B
Sat 11:59:52 AM 46.1110 -68.6210 208° Southwest 430 495 38,000  Level FlightAware ADS-B
Sat 12:00:10 PM 46.0833 -68.6429 209° Southwest 431 496 38,000  Level FlightAware ADS-B
Sat 12:01:07 PM 45.9810 -68.7230 209° Southwest 429 494 38,000  Level FlightAware ADS-B
Sat 12:02:00 PM 45.8886 -68.7945 208° Southwest 429 494 38,000  Level FlightAware ADS-B
Sat 12:02:31 PM 45.8330 -68.8370 208° Southwest 429 494 38,000  Level FlightAware ADS-B
Sat 12:03:04 PM 45.7925 -68.8689 209° Southwest 430 495 38,000  Level FlightAware ADS-B
Sat 12:03:35 PM 45.7277 -68.9188 208° Southwest 430 495 38,000  Level FlightAware ADS-B
Sat 12:04:35 PM 45.6170 -69.0040 208° Southwest 432 497 38,000  Level FlightAware ADS-B
Sat 12:05:01 PM 45.7251 -68.9209 28° Northeast 434 499 38,000  Level FlightAware ADS-B
Sat 12:06:00 PM 45.4700 -69.1160 208° Southwest 436 502 38,000  Level FlightAware ADS-B
Sat 12:06:45 PM 45.3882 -69.1788 208° Southwest 435 501 38,000  Level FlightAware ADS-B
Sat 12:07:21 PM 45.3261 -69.2260 208° Southwest 435 501 38,000  Level FlightAware ADS-B
Sat 12:07:52 PM 45.2684 -69.2695 208° Southwest 435 501 38,000  Level FlightAware ADS-B
Sat 12:08:36 PM 45.2286 -69.2995 208° Southwest 438 504 38,000  Level FlightAware ADS-B
Sat 12:09:06 PM 45.1452 -69.3624 208° Southwest 441 507 38,000  Level FlightAware ADS-B
Sat 12:09:40 PM 45.1104 -69.3886 208° Southwest 442 509 38,000  Level FlightAware ADS-B
Sat 12:10:15 PM 45.0119 -69.4624 208° Southwest 443 510 38,000  Level FlightAware ADS-B (WASR / MKW)
Sat 12:10:48 PM 44.9617 -69.5000 208° Southwest 444 511 38,000  Level FlightAware ADS-B
Sat 12:11:18 PM 44.9007 -69.5456 208° Southwest 444 511 38,000  Level FlightAware ADS-B
Sat 12:11:51 PM 44.8385 -69.5919 208° Southwest 443 510 38,000  Level FlightAware ADS-B
Sat 12:12:31 PM 44.7660 -69.6458 208° Southwest 442 509 38,000  Level FlightAware ADS-B
Sat 12:13:04 PM 44.7052 -69.6909 208° Southwest 442 509 38,000  Level FlightAware ADS-B
Sat 12:13:44 PM 44.6342 -69.7431 208° Southwest 442 509 38,000  Level FlightAware ADS-B
Sat 12:14:14 PM 44.5785 -69.7841 208° Southwest 441 507 38,000  Level FlightAware ADS-B
Sat 12:14:45 PM 44.5232 -69.8247 208° Southwest 441 507 38,000  Level FlightAware ADS-B
Sat 12:15:25 PM 44.4493 -69.8789 208° Southwest 442 509 38,000  Level FlightAware ADS-B
Sat 12:15:58 PM 44.3933 -69.9197 208° Southwest 434 499 38,000  Level FlightAware ADS-B
Sat 12:16:29 PM 44.3387 -69.9596 208° Southwest 440 506 38,000  Level FlightAware ADS-B
Sat 12:17:04 PM 44.2721 -70.0082 208° Southwest 439 505 38,000  Level FlightAware ADS-B
Sat 12:17:47 PM 44.1954 -70.0639 208° Southwest 439 505 38,000  Level FlightAware ADS-B (WASR / MKW)
Sat 12:18:23 PM 44.1290 -70.1120 207° Southwest 441 507 38,000  Level FlightAware ADS-B
Sat 12:18:56 PM 44.0714 -70.1536 207° Southwest 440 506 38,000  Level FlightAware ADS-B
Sat 12:19:34 PM 44.0014 -70.2041 207° Southwest 442 509 38,000  Level FlightAware ADS-B
Sat 12:20:08 PM 43.9408 -70.2477 207° Southwest 434 499 38,000  Level FlightAware ADS-B
Sat 12:20:23 PM 43.9152 -70.2660 207° Southwest 435 501 38,000  Level FlightAware ADS-B
Sat 12:20:56 PM 43.8532 -70.3103 207° Southwest 436 502 38,000  Level FlightAware ADS-B
Sat 12:21:31 PM 43.7904 -70.3551 207° Southwest 435 501 38,000  Level FlightAware ADS-B
Sat 12:22:01 PM 43.7366 -70.3934 207° Southwest 435 501 38,000  Level FlightAware ADS-B
Sat 12:22:10 PM 43.7230 -70.4031 207° Southwest 441 507 38,000  Level FlightAware ADS-B
Sat 12:22:41 PM 43.6650 -70.4450 208° Southwest 442 509 38,000  Level FlightAware ADS-B
Sat 12:22:55 PM 43.6828 -70.4317 28° Northeast 443 510 38,000  Level FlightAware ADS-B (KBOS)
Sat 12:24:07 PM 43.5792 -70.5053 207° Southwest 444 511 38,000  Level FlightAware ADS-B (KBOS)
Sat 12:24:46 PM 43.4346 -70.6031 206° Southwest 449 517 38,000  Level FlightAware ADS-B (KBOS)
Sat 12:25:17 PM 43.3735 -70.6300 198° South 455 524 38,000  Level FlightAware ADS-B (KBOS)
Sat 12:25:47 PM 43.3109 -70.6524 195° South 455 524 38,000  Level FlightAware ADS-B (KBOS)
Sat 12:26:17 PM 43.2525 -70.6747 195° South 456 525 38,000  Level FlightAware ADS-B (KBOS)
Sat 12:26:47 PM 43.1907 -70.6973 195° South 458 527 38,000  Level FlightAware ADS-B (KBOS)
Sat 12:27:17 PM 43.1278 -70.7200 195° South 458 527 38,000  Level FlightAware ADS-B (KBOS)
Sat 12:27:47 PM 43.0726 -70.7397 195° South 459 528 38,000  Level FlightAware ADS-B (KBOS)
Sat 12:28:08 PM 43.0246 -70.7565 194° South 450 518 38,000  Level FlightAware ADS-B
Sat 12:28:18 PM 43.0028 -70.7642 194° South 450 518 38,000  Level FlightAware ADS-B
Sat 12:28:48 PM 42.9430 -70.7852 194° South 457 526 38,000  Level FlightAware ADS-B (KBOS)
Sat 12:29:18 PM 42.8809 -70.8070 194° South 455 524 38,000  Level FlightAware ADS-B (KBOS)
Sat 12:29:28 PM 42.8609 -70.8140 194° South 447 514 38,000  Level FlightAware ADS-B
Sat 12:29:37 PM 42.8431 -70.8202 194° South 447 514 38,000  Level FlightAware ADS-B
Sat 12:30:28 PM 42.7397 -70.8578 195° South 450 518 38,000  Level FlightAware ADS-B (KBOS)
Sat 12:30:38 PM 42.7198 -70.8702 205° Southwest 444 511 38,000  Level FlightAware ADS-B
Sat 12:30:56 PM 42.6905 -70.8976 215° Southwest 432 497 38,000  Level FlightAware ADS-B (KBOS)
Sat 12:31:28 PM 42.6403 -70.9524 219° Southwest 436 502 38,000  Level FlightAware ADS-B (KBOS)
Sat 12:31:46 PM 42.6117 -70.9832 218° Southwest 437 503 38,000  Level FlightAware ADS-B
Sat 12:31:58 PM 42.5934 -71.0028 218° Southwest 432 497 38,000  Level FlightAware ADS-B
Sat 12:32:17 PM 42.5642 -71.0341 218° Southwest 439 505 38,000  Level FlightAware ADS-B (KBOS)
Sat 12:32:28 PM 42.5449 -71.0548 218° Southwest 433 498 38,000  Level FlightAware ADS-B
Sat 12:32:46 PM 42.5168 -71.0850 218° Southwest 433 498 38,000  Level FlightAware ADS-B
Sat 12:32:57 PM 42.4991 -71.1039 218° Southwest 433 498 38,000  Level FlightAware ADS-B
Sat 12:33:06 PM 42.4849 -71.1191 218° Southwest 432 497 38,000  Level FlightAware ADS-B
Sat 12:33:18 PM 42.4662 -71.1390 218° Southwest 439 505 38,000  Level FlightAware ADS-B (SBBR / BSB)
Sat 12:33:28 PM 42.4500 -71.1564 218° Southwest 432 497 38,000  Level FlightAware ADS-B
Sat 12:33:48 PM 42.4184 -71.1900 218° Southwest 431 496 38,000  Level FlightAware ADS-B
Sat 12:34:08 PM 42.3870 -71.2234 218° Southwest 430 495 38,000  Level FlightAware ADS-B
Sat 12:34:29 PM 42.3527 -71.2599 218° Southwest 434 499 38,000  Level FlightAware ADS-B (SBBR / BSB)
Sat 12:35:07 PM 42.2941 -71.3223 218° Southwest 431 496 38,000  Level FlightAware ADS-B (KBOS)
Sat 12:35:38 PM 42.2462 -71.3728 218° Southwest 430 495 38,000  Level FlightAware ADS-B
Sat 12:36:08 PM 42.1980 -71.4237 218° Southwest 429 494 38,000  Level FlightAware ADS-B
Sat 12:36:38 PM 42.1520 -71.4724 218° Southwest 431 496 38,000  Level FlightAware ADS-B (KBOS)
Sat 12:37:08 PM 42.1045 -71.5224 218° Southwest 432 497 38,000  Level FlightAware ADS-B
Sat 12:37:38 PM 42.0589 -71.5703 218° Southwest 432 497 38,000  Level FlightAware ADS-B (KBOS)
Sat 12:38:08 PM 42.0099 -71.6218 218° Southwest 433 498 38,000  Level FlightAware ADS-B
Sat 12:38:40 PM 41.9591 -71.6750 218° Southwest 434 499 38,000  Level FlightAware ADS-B (SBBR / BSB)
Sat 12:39:08 PM 41.9148 -71.7213 218° Southwest 428 493 38,000  Level FlightAware ADS-B
Sat 12:39:19 PM 41.8986 -71.7382 218° Southwest 435 501 38,000  Level FlightAware ADS-B (KOWD)
Sat 12:39:43 PM 41.8593 -71.7792 218° Southwest 430 495 38,000  Level FlightAware ADS-B
Sat 12:39:52 PM 41.8522 -71.7866 218° Southwest 436 502 38,000  Level FlightAware ADS-B (KOWD)
Sat 12:40:23 PM 41.7959 -71.8452 218° Southwest 436 502 38,000  Level FlightAware ADS-B (KSNC)
Sat 12:40:54 PM 41.7470 -71.8958 218° Southwest 436 502 38,000  Level FlightAware ADS-B (KSNC)
Sat 12:41:25 PM 41.6974 -71.9473 218° Southwest 437 503 38,000  Level FlightAware ADS-B (SBBR / BSB)
Sat 12:41:55 PM 41.6518 -71.9944 218° Southwest 438 504 38,000  Level FlightAware ADS-B (KSNC)
Sat 12:42:29 PM 41.5958 -72.0522 218° Southwest 438 504 38,000  Level FlightAware ADS-B (SBBR / BSB)
Sat 12:43:01 PM 41.5443 -72.1053 218° Southwest 437 503 38,000  Level FlightAware ADS-B (KOWD)
Sat 12:43:31 PM 41.5005 -72.1503 218° Southwest 439 505 38,000  Level FlightAware ADS-B (SBBR / BSB)
Sat 12:44:01 PM 41.4472 -72.2051 218° Southwest 442 509 38,000  Level FlightAware ADS-B (KOWD)
Sat 12:44:33 PM 41.3964 -72.2570 217° Southwest 441 507 38,000  Level FlightAware ADS-B (SBBR / BSB)
Sat 12:45:12 PM 41.3325 -72.3222 217° Southwest 443 510 38,000  Level FlightAware ADS-B (KSNC)
Sat 12:45:43 PM 41.2815 -72.3741 217° Southwest 444 511 38,000  Level FlightAware ADS-B (SBBR / BSB)
Sat 12:46:23 PM 41.2154 -72.4412 217° Southwest 444 511 38,000  Level FlightAware ADS-B (KSNC)
Sat 12:46:55 PM 41.1646 -72.4926 217° Southwest 438 504 38,000  Level FlightAware ADS-B (KSNC)
Sat 12:47:32 PM 41.1087 -72.5491 217° Southwest 432 497 38,000  Level FlightAware ADS-B (SBBR / BSB)
Sat 12:48:02 PM 41.0615 -72.5970 217° Southwest 431 496 38,000  Level FlightAware ADS-B (SBBR / BSB)
Sat 12:48:33 PM 41.0102 -72.6488 217° Southwest 432 497 38,000  Level FlightAware ADS-B (SBBR / BSB)
Sat 12:49:03 PM 40.9603 -72.6990 217° Southwest 434 499 38,000  Level FlightAware ADS-B (KSNC)
Sat 12:49:34 PM 40.9112 -72.7483 217° Southwest 435 501 38,000  Level FlightAware ADS-B (KSNC)
Sat 12:50:12 PM 40.8538 -72.8058 217° Southwest 434 499 38,000  Level FlightAware ADS-B (KSNC)
Sat 12:50:53 PM 40.7874 -72.8720 217° Southwest 430 495 38,000  Level FlightAware ADS-B (KSNC)
Sat 12:51:35 PM 40.7275 -72.9318 217° Southwest 429 494 38,000  Level FlightAware ADS-B (KSNC)
Sat 12:52:05 PM 40.6713 -72.9877 217° Southwest 429 494 38,000  Level FlightAware ADS-B (KSNC)
Sat 12:52:44 PM 40.6133 -73.0452 217° Southwest 428 493 38,000  Level FlightAware ADS-B (KSNC)
Sat 12:53:24 PM 40.5471 -73.1109 217° Southwest 427 491 38,000  Level FlightAware ADS-B (KSNC)
Sat 12:54:07 PM 40.4826 -73.1746 217° Southwest 424 488 38,000  Level FlightAware ADS-B (KSNC)
Sat 12:54:46 PM 40.4197 -73.2365 217° Southwest 421 484 38,000  Level FlightAware ADS-B (KSNC)
Sat 12:55:21 PM 40.3650 -73.2902 217° Southwest 419 482 38,000  Level FlightAware ADS-B (KSNC)
Sat 12:55:54 PM 40.3128 -73.3415 217° Southwest 419 482 38,000  Level FlightAware ADS-B (KWWD)
Sat 12:56:31 PM 40.2562 -73.3970 217° Southwest 420 483 38,000  Level FlightAware ADS-B (KSNC)
Sat 12:57:01 PM 40.2089 -73.4432 217° Southwest 422 486 38,000  Level FlightAware ADS-B (KSNC)
Sat 12:57:35 PM 40.1559 -73.4950 217° Southwest 424 488 38,000  Level FlightAware ADS-B (KWWD)
Sat 12:58:07 PM 40.1062 -73.5434 217° Southwest 422 486 38,000  Level FlightAware ADS-B (KWWD)
Sat 12:58:40 PM 40.0555 -73.5925 217° Southwest 420 483 38,000  Level FlightAware ADS-B (KSNC)
Sat 12:59:12 PM 40.0040 -73.6425 217° Southwest 420 483 38,000  Level FlightAware ADS-B (KSNC)
Sat 12:59:47 PM 39.9516 -73.6931 217° Southwest 420 483 38,000  Level FlightAware ADS-B (KWWD)
Sat 01:00:13 PM 39.9108 -73.7310 215° Southwest 431 496 38,000  Level FlightAware ADS-B (KSNC)
Sat 01:00:26 PM 39.8836 -73.7469 204° Southwest 445 512 38,000  Level FlightAware ADS-B (KWWD)
Sat 01:00:58 PM 39.8211 -73.7710 197° South 451 519 38,000  Level FlightAware ADS-B (KWWD)
Sat 01:01:37 PM 39.7419 -73.8008 196° South 452 520 38,000  Level FlightAware ADS-B (KWWD)
Sat 01:02:16 PM 39.6628 -73.8308 196° South 452 520 38,000  Level FlightAware ADS-B (KWWD)
Sat 01:02:48 PM 39.5999 -73.8548 196° South 452 520 38,000  Level FlightAware ADS-B (KWWD)
Sat 01:03:27 PM 39.5221 -73.8839 196° South 454 522 38,000  Level FlightAware ADS-B (KWWD)
Sat 01:03:59 PM 39.4577 -73.9115 198° South 441 507 38,000  Level FlightAware ADS-B (KWWD)
Sat 01:04:38 PM 39.3905 -73.9640 211° Southwest 431 496 38,000  Level FlightAware ADS-B (KWWD)
Sat 01:05:08 PM 39.3401 -74.0030 211° Southwest 433 498 38,000  Level FlightAware ADS-B (KWWD)
Sat 01:05:47 PM 39.2723 -74.0556 211° Southwest 434 499 38,000  Level FlightAware ADS-B (KWWD)
Sat 01:06:19 PM 39.2187 -74.0972 211° Southwest 434 499 38,000  Level FlightAware ADS-B (KWWD)
Sat 01:06:49 PM 39.1664 -74.1379 211° Southwest 433 498 38,000  Level FlightAware ADS-B (KWWD)
Sat 01:07:28 PM 39.0992 -74.1896 211° Southwest 433 498 38,000  Level FlightAware ADS-B (KWWD)
Sat 01:07:58 PM 39.0477 -74.2294 211° Southwest 432 497 38,000  Level FlightAware ADS-B (KWWD)
Sat 01:08:28 PM 38.9987 -74.2673 211° Southwest 433 498 38,000  Level FlightAware ADS-B (KWWD)
Sat 01:08:58 PM 38.9454 -74.3084 211° Southwest 433 498 38,000  Level FlightAware ADS-B (KWWD)
Sat 01:09:28 PM 38.8934 -74.3484 211° Southwest 434 499 38,000  Level FlightAware ADS-B (KWWD)
Sat 01:09:59 PM 38.8412 -74.3884 211° Southwest 434 499 38,000  Level FlightAware ADS-B (KWWD)
Sat 01:10:29 PM 38.7883 -74.4290 211° Southwest 435 501 38,000  Level FlightAware ADS-B (KWWD)
Sat 01:10:59 PM 38.7374 -74.4678 211° Southwest 435 501 38,000  Level FlightAware ADS-B (KWWD)
Sat 01:11:30 PM 38.6837 -74.5087 211° Southwest 435 501 38,000  Level FlightAware ADS-B (KWWD)
Sat 01:12:10 PM 38.6153 -74.5608 211° Southwest 434 499 38,000  Level FlightAware ADS-B (KWWD)
Sat 01:12:40 PM 38.5631 -74.6004 211° Southwest 433 498 38,000  Level FlightAware ADS-B (KWWD)
Sat 01:13:15 PM 38.5179 -74.6348 211° Southwest 433 498 38,000  Level FlightAware ADS-B
Sat 01:13:50 PM 38.4439 -74.6908 211° Southwest 432 497 38,000  Level FlightAware ADS-B
Sat 01:14:28 PM 38.3771 -74.7413 211° Southwest 432 497 38,000  Level FlightAware ADS-B (KWWD)
Sat 01:14:58 PM 38.3254 -74.7801 210° Southwest 431 496 38,000  Level FlightAware ADS-B (KWWD)
Sat 01:15:28 PM 38.2734 -74.8193 211° Southwest 432 497 38,000  Level FlightAware ADS-B (KWWD)
Sat 01:15:59 PM 38.2199 -74.8597 211° Southwest 433 498 38,000  Level FlightAware ADS-B (KWWD)
Sat 01:16:36 PM 38.1578 -74.9062 211° Southwest 433 498 38,000  Level FlightAware ADS-B
Sat 01:17:09 PM 38.0998 -74.9497 211° Southwest 432 497 38,000  Level FlightAware ADS-B (KWWD)
Sat 01:17:39 PM 38.0491 -74.9875 210° Southwest 431 496 38,000  Level FlightAware ADS-B (KWWD)
Sat 01:17:59 PM 38.0228 -75.0072 210° Southwest 429 494 38,000  Level FlightAware ADS-B
Sat 01:18:30 PM 37.9622 -75.0523 210° Southwest 427 491 38,000  Level FlightAware ADS-B (KWWD)
Sat 01:19:07 PM 37.8982 -75.0999 210° Southwest 417 480 38,000  Level FlightAware ADS-B (KWWD)
Sat 01:19:50 PM 37.8269 -75.1528 210° Southwest 413 475 38,000  Level FlightAware ADS-B (KWWD)
Sat 01:20:20 PM 37.7808 -75.1870 210° Southwest 419 482 38,000  Level FlightAware ADS-B
Sat 01:20:50 PM 37.7252 -75.2283 210° Southwest 414 476 38,000  Level FlightAware ADS-B (KWWD)
Sat 01:21:20 PM 37.6749 -75.2655 210° Southwest 416 479 38,000  Level FlightAware ADS-B (KWWD)
Sat 01:21:38 PM 37.6493 -75.2843 210° Southwest 423 487 38,000  Level FlightAware ADS-B
Sat 01:22:09 PM 37.5934 -75.3254 210° Southwest 416 479 38,000  Level FlightAware ADS-B (KWWD)
Sat 01:22:40 PM 37.5397 -75.3648 210° Southwest 416 479 38,000  Level FlightAware ADS-B (KWWD)
Sat 01:23:19 PM 37.4745 -75.4127 210° Southwest 417 480 38,000  Level FlightAware ADS-B (KWWD)
Sat 01:23:49 PM 37.4256 -75.4485 210° Southwest 417 480 38,000  Level FlightAware ADS-B (KWWD)
Sat 01:24:20 PM 37.3705 -75.4890 210° Southwest 425 489 38,000  Level FlightAware ADS-B (KWWD)
Sat 01:24:51 PM 37.3183 -75.5272 210° Southwest 426 490 38,000  Level FlightAware ADS-B (KWWD)
Sat 01:25:25 PM 37.2629 -75.5674 210° Southwest 426 490 38,000  Level FlightAware ADS-B
Sat 01:25:59 PM 37.2028 -75.6113 210° Southwest 426 490 38,000  Level FlightAware ADS-B (KWWD)
Sat 01:26:30 PM 37.1497 -75.6500 210° Southwest 427 491 38,000  Level FlightAware ADS-B (KWWD)
Sat 01:27:01 PM 37.0991 -75.6865 210° Southwest 428 493 38,000  Level FlightAware ADS-B (KWWD)
Sat 01:27:39 PM 37.0311 -75.7356 210° Southwest 429 494 38,000  Level FlightAware ADS-B (KWWD)
Sat 01:28:11 PM 36.9769 -75.7750 210° Southwest 431 496 38,000  Level FlightAware ADS-B (KWWD)
Sat 01:28:50 PM 36.9099 -75.8232 210° Southwest 432 497 38,000  Level FlightAware ADS-B (KWWD)
Sat 01:29:29 PM 36.8413 -75.8726 210° Southwest 432 497 38,000  Level FlightAware ADS-B (KWWD)
Sat 01:30:00 PM 36.7882 -75.9106 210° Southwest 431 496 38,000  Level FlightAware ADS-B (KWWD)
Sat 01:30:31 PM 36.7341 -75.9495 210° Southwest 431 496 38,000  Level FlightAware ADS-B (KWWD)
Sat 01:31:13 PM 36.6770 -75.9910 210° Southwest 429 494 38,000  Level FlightAware ADS-B
Sat 01:31:33 PM 36.6304 -76.0237 209° Southwest 428 493 38,000  Level FlightAware ADS-B (KWWD)
Sat 01:32:18 PM 36.5505 -76.0808 210° Southwest 428 493 38,000  Level FlightAware ADS-B (KWWD)
Sat 01:32:49 PM 36.4968 -76.1190 210° Southwest 429 494 38,000  Level FlightAware ADS-B (KWWD)
Sat 01:33:29 PM 36.4285 -76.1676 210° Southwest 430 495 38,000  Level FlightAware ADS-B (KWWD)
Sat 01:34:07 PM 36.3631 -76.2139 210° Southwest 429 494 38,000  Level FlightAware ADS-B (KWWD)
Sat 01:34:46 PM 36.2967 -76.2603 209° Southwest 429 494 38,000  Level FlightAware ADS-B (KWWD)
Sat 01:35:47 PM 36.2030 -76.3100 203° Southwest 439 505 38,000  Level FlightAware ADS-B
Sat 01:36:34 PM 36.0900 -76.3560 198° South 447 514 38,000  Level FlightAware ADS-B
Sat 01:37:38 PM 35.9800 -76.4060 200° South 446 513 38,000  Level FlightAware ADS-B
Sat 01:38:14 PM 35.9210 -76.4330 200° South 446 513 38,000  Level FlightAware ADS-B
Sat 01:38:50 PM 35.8610 -76.4590 199° South 446 513 38,000  Level FlightAware ADS-B
Sat 01:39:15 PM 35.8200 -76.4780 201° Southwest 446 513 38,000  Level FlightAware ADS-B
Sat 01:40:28 PM 35.7000 -76.5320 200° South 446 513 38,000  Level FlightAware ADS-B
Sat 01:41:22 PM 35.5540 -76.6010 201° Southwest 454 522 38,000  Level FlightAware ADS-B
Sat 01:42:16 PM 35.4420 -76.6520 200° South 458 527 38,000  Level FlightAware ADS-B
Sat 01:43:25 PM 35.3040 -76.7140 200° South 457 526 38,000  Level FlightAware ADS-B
Sat 01:43:45 PM 35.2680 -76.7290 199° South 456 525 38,000  Level FlightAware ADS-B
Sat 01:44:20 PM 35.1930 -76.7630 200° South 456 525 38,000  Level FlightAware ADS-B
Sat 01:45:00 PM 35.1250 -76.7940 200° South 454 522 38,000  Level FlightAware ADS-B
Sat 01:45:39 PM 35.0480 -76.8280 200° South 453 521 38,000  Level FlightAware ADS-B
Sat 01:46:09 PM 34.9860 -76.8560 200° South 453 521 38,000  Level FlightAware ADS-B
Sat 01:46:44 PM 34.9140 -76.8880 200° South 454 522 38,000  Level FlightAware ADS-B
Sat 01:47:48 PM 34.8020 -76.9380 200° South 455 524 38,000  Level FlightAware ADS-B
Sat 01:48:23 PM 34.7270 -76.9710 200° South 456 525 38,000  Level FlightAware ADS-B
Sat 01:49:02 PM 34.6470 -77.0070 200° South 457 526 38,000  Level FlightAware ADS-B
Sat 01:49:52 PM 34.5600 -77.0450 200° South 457 526 38,000  Level FlightAware ADS-B
Sat 01:50:31 PM 34.4830 -77.0790 200° South 456 525 38,000  Level FlightAware ADS-B
Sat 01:51:21 PM 34.3920 -77.1190 200° South 455 524 38,000  Level FlightAware ADS-B
Sat 01:52:11 PM 34.2940 -77.1620 200° South 456 525 38,000  Level FlightAware ADS-B
Sat 01:53:01 PM 34.2130 -77.1980 200° South 457 526 38,000  Level FlightAware ADS-B
Sat 01:53:45 PM 34.1170 -77.2400 200° South 459 528 38,000  Level FlightAware ADS-B
Sat 01:54:14 PM 34.0460 -77.2700 199° South 462 532 38,000  Level FlightAware ADS-B
Sat 01:54:49 PM 33.9860 -77.2960 200° South 462 532 38,000  Level FlightAware ADS-B
Sat 01:55:19 PM 33.9360 -77.3180 200° South 460 529 38,000  Level FlightAware ADS-B
Sat 01:56:18 PM 33.8320 -77.3630 200° South 458 527 38,000  Level FlightAware ADS-B
Sat 01:56:43 PM 33.7720 -77.3890 200° South 458 527 38,000  Level FlightAware ADS-B
Sat 01:57:43 PM 33.6480 -77.4420 200° South 458 527 38,000  Level FlightAware ADS-B
Sat 01:58:07 PM 33.6020 -77.4620 200° South 458 527 38,000  Level FlightAware ADS-B
Sat 01:58:42 PM 33.5400 -77.4890 200° South 458 527 38,000  Level FlightAware ADS-B
Sat 01:59:51 PM 33.4120 -77.5440 200° South 457 526 38,000  Level FlightAware ADS-B
Sat 02:00:26 PM 33.3470 -77.5720 200° South 457 526 38,000  Level FlightAware ADS-B
Sat 02:01:24 PM 33.2380 -77.6190 200° South 457 526 38,000  Level FlightAware ADS-B
Sat 02:02:11 PM 33.1580 -77.6530 200° South 457 526 38,000  Level FlightAware ADS-B
Sat 02:03:11 PM 33.0570 -77.6970 200° South 457 526 38,000  Level FlightAware ADS-B
Sat 02:03:47 PM 32.9960 -77.7240 200° South 457 526 38,000  Level FlightAware ADS-B
Sat 02:04:46 PM 32.8970 -77.7670 200° South 457 526 38,000  Level FlightAware ADS-B
Sat 02:05:22 PM 32.8360 -77.7930 200° South 457 526 38,000  Level FlightAware ADS-B
Sat 02:05:47 PM 32.7940 -77.8120 201° Southwest 457 526 38,000  Level FlightAware ADS-B
Sat 02:06:40 PM 32.5053 -77.9269 201° Southwest 463 533 38,000  Level Jacksonville Center
Sat 02:07:40 PM 32.3861 -77.9750 199° South 463 533 38,000  Level Jacksonville Center
Sat 02:08:41 PM 32.2631 -78.0261 199° South 463 533 38,000  Level Jacksonville Center
Sat 02:09:40 PM 32.1400 -78.0817 201° Southwest 463 533 38,000  Level Jacksonville Center
Sat 02:10:40 PM 32.0206 -78.1269 198° South 463 533 38,000  Level Jacksonville Center
Sat 02:11:41 PM 31.8992 -78.1725 198° South 463 533 38,000  Level Jacksonville Center
Sat 02:12:40 PM 31.7739 -78.2278 201° Southwest 463 533 38,000  Level Jacksonville Center
Sat 02:13:40 PM 31.6547 -78.2850 202° Southwest 463 533 38,000  Level Jacksonville Center
Sat 02:14:41 PM 31.5314 -78.3325 198° South 469 540 38,000  Level Jacksonville Center
Sat 02:15:40 PM 31.4058 -78.3872 200° South 469 540 38,000  Level Jacksonville Center
Sat 02:16:40 PM 31.2822 -78.4347 198° South 469 540 38,000  Level Jacksonville Center
Sat 02:17:40 PM 31.1631 -78.4814 199° South 469 540 38,000  Level Jacksonville Center
Sat 02:18:40 PM 31.0394 -78.5333 200° South 469 540 38,000  Level Jacksonville Center
Sat 02:20:50 PM 30.7756 -78.6414 199° South 469 540 38,000  Level Miami Center
Sat 02:21:50 PM 30.6542 -78.6875 198° South 475 547 38,000  Level Miami Center
Sat 02:22:50 PM 30.5267 -78.7167 191° South 475 547 38,000  Level Miami Center
Sat 02:23:50 PM 30.3972 -78.7456 191° South 475 547 38,000  Level Miami Center
Sat 02:24:50 PM 30.2592 -78.7719 189° South 482 555 38,000  Level Miami Center
Sat 02:25:50 PM 30.1464 -78.7964 191° South 482 555 38,000  Level Miami Center
Sat 02:26:50 PM 30.0167 -78.8228 190° South 482 555 38,000  Level Miami Center
Sat 02:27:50 PM 29.8869 -78.8539 192° South 482 555 38,000  Level Miami Center
Sat 02:28:50 PM 29.7450 -78.8681 185° South 489 563 38,000  Level Miami Center
Sat 02:29:50 PM 29.6236 -78.9039 194° South 481 554 38,000  Level Miami Center
Sat 02:30:50 PM 29.4939 -78.9325 191° South 481 554 38,000 -232 Level Miami Center
Sat 02:35:52 PM 28.8220 -79.0660 191° South 471 542 36,600 -379 Descending FlightAware ADS-B
Sat 02:36:54 PM 28.6990 -79.0910 190° South 459 528 35,700 -962 Descending FlightAware ADS-B
Sat 02:37:38 PM 28.5930 -79.1120 190° South 473 544 34,900 -1,026 Descending FlightAware ADS-B
Sat 02:38:10 PM 28.5260 -79.1260 190° South 476 548 34,400 -970 Descending FlightAware ADS-B
Sat 02:39:17 PM 28.3830 -79.1550 190° South 482 555 33,300 -984 Descending FlightAware ADS-B
Sat 02:40:18 PM 28.2480 -79.1820 190° South 473 544 32,300 -991 Descending FlightAware ADS-B
Sat 02:41:12 PM 28.1340 -79.2050 190° South 456 525 31,400 -763 Descending FlightAware ADS-B
Sat 02:42:16 PM 28.0080 -79.2290 190° South 460 529 30,800 -1,047 Descending FlightAware ADS-B
Sat 02:42:38 PM 27.9510 -79.2410 191° South 451 519 29,900 -1,373 Descending FlightAware ADS-B
Sat 02:43:39 PM 27.8270 -79.2660 190° South 442 509 28,900 -976 Descending FlightAware ADS-B
Sat 02:44:41 PM 27.7040 -79.2900 190° South 441 507 27,900 -964 Descending FlightAware ADS-B
Sat 02:45:31 PM 27.6060 -79.3090 190° South 420 483 27,100 -973 Descending FlightAware ADS-B
Sat 02:46:32 PM 27.4910 -79.3320 190° South 412 474 26,100 -1,008 Descending FlightAware ADS-B
Sat 02:47:30 PM 27.3807 -79.3537 190° South 402 463 25,100 -1,056 Descending FlightAware ADS-B
Sat 02:48:20 PM 27.2900 -79.3720 190° South 392 451 24,200 -617 Descending FlightAware ADS-B
Sat 02:49:17 PM 27.1900 -79.3940 191° South 383 441 24,000 -138 Descending FlightAware ADS-B
Sat 02:49:47 PM 27.1416 -79.4210 206° Southwest 383 441 24,000  Level FlightAware ADS-B
Sat 02:50:25 PM 27.0850 -79.4580 210° Southwest 385 443 24,000  Level FlightAware ADS-B
Sat 02:50:35 PM 27.0841 -79.4585 208° Southwest 384 442 24,000 -92 Level FlightAware ADS-B
Sat 02:51:30 PM 26.9824 -79.5204 208° Southwest 386 444 23,900 -526 Descending FlightAware ADS-B
Sat 02:52:29 PM 26.8916 -79.5748 208° Southwest 380 437 23,000 -486 Descending FlightAware ADS-B
Sat 02:53:21 PM 26.8110 -79.6230 208° Southwest 381 438 23,000 -1,148 Level FlightAware ADS-B
Sat 02:54:24 PM 26.7110 -79.6820 208° Southwest 385 443 20,800 -2,103 Descending FlightAware ADS-B
Sat 02:54:58 PM 26.6570 -79.7140 208° Southwest 386 444 19,600 -2,063 Descending FlightAware ADS-B
Sat 02:55:28 PM 26.6080 -79.7440 209° Southwest 381 438 18,600 -1,800 Descending FlightAware ADS-B
Sat 02:55:58 PM 26.5610 -79.7720 208° Southwest 374 430 17,800 -1,406 Descending FlightAware ADS-B
Sat 02:56:32 PM 26.5130 -79.8000 208° Southwest 367 422 17,100 -1,172 Descending FlightAware ADS-B
Sat 02:57:25 PM 26.4320 -79.8480 208° Southwest 365 420 16,100 -1,368 Descending FlightAware ADS-B
Sat 02:58:26 PM 26.3500 -79.9120 215° Southwest 349 402 14,500 -1,518 Descending FlightAware ADS-B
Sat 02:58:48 PM 26.3230 -79.9360 219° Southwest 346 398 14,000 -1,424 Descending FlightAware ADS-B
Sat 02:59:25 PM 26.2660 -79.9610 201° Southwest 339 390 13,100 -1,416 Descending FlightAware ADS-B
Sat 03:00:17 PM 26.1900 -79.9950 202° Southwest 331 381 11,900 -1,408 Descending FlightAware ADS-B
Sat 03:01:03 PM 26.1280 -80.0220 201° Southwest 322 371 10,800 -1,400 Descending FlightAware ADS-B
Sat 03:01:47 PM 26.0710 -80.0480 202° Southwest 316 364 9,800 -1,378 Descending FlightAware ADS-B
Sat 03:02:17 PM 26.0280 -80.0670 202° Southwest 309 356 9,100 -1,279 Descending FlightAware ADS-B
Sat 03:02:48 PM 25.9850 -80.0860 202° Southwest 307 353 8,500 -873 Descending FlightAware ADS-B
Sat 03:03:12 PM 25.9580 -80.1040 211° Southwest 298 343 8,300 -429 Descending FlightAware ADS-B
Sat 03:03:44 PM 25.9470 -80.1480 254° West 290 334 8,100 -750 Descending FlightAware ADS-B
Sat 03:04:08 PM 25.9450 -80.1860 267° West 291 335 7,600 -1,119 Descending FlightAware ADS-B
Sat 03:04:43 PM 25.9430 -80.2380 268° West 288 331 7,000 -909 Descending FlightAware ADS-B
Sat 03:05:14 PM 25.9420 -80.2820 269° West 274 315 6,600 -778 Descending FlightAware ADS-B
Sat 03:05:37 PM 25.9400 -80.3140 266° West 251 289 6,300 -612 Descending FlightAware ADS-B
Sat 03:06:03 PM 25.9390 -80.3460 268° West 232 267 6,100 -655 Descending FlightAware ADS-B
Sat 03:06:32 PM 25.9380 -80.3780 268° West 221 254 5,700 -1,286 Descending FlightAware ADS-B
Sat 03:06:59 PM 25.9370 -80.4110 268° West 224 258 4,900 -1,787 Descending FlightAware ADS-B
Sat 03:07:19 PM 25.9360 -80.4340 267° West 229 264 4,300 -1,333 Descending FlightAware ADS-B
Sat 03:07:44 PM 25.9340 -80.4640 266° West 228 262 3,900 -453 Descending FlightAware ADS-B
Sat 03:08:12 PM 25.9320 -80.4950 266° West 221 254 3,900  Level FlightAware ADS-B
Sat 03:08:52 PM 25.9290 -80.5390 266° West 215 247 3,900  Level FlightAware ADS-B
Sat 03:09:15 PM 25.9170 -80.5610 239° Southwest 203 234 3,900  Level FlightAware ADS-B
Sat 03:09:26 PM 25.9070 -80.5640 195° South 194 223 3,900 -240 Level FlightAware ADS-B
Sat 03:10:05 PM 25.8880 -80.5400 131° Southeast 177 204 3,700 -552 Descending FlightAware ADS-B
Sat 03:10:53 PM 25.8920 -80.4970 84° East 171 197 3,100 -840 Descending FlightAware ADS-B
Sat 03:10:55 PM 25.8920 -80.4950 90° East 171 197 3,000 -235 Descending FlightAware ADS-B
Sat 03:11:44 PM 25.8770 -80.4560 113° Southeast 170 196 2,900 -439 Descending FlightAware ADS-B
Sat 03:12:17 PM 25.8650 -80.4300 117° Southeast 172 198 2,400 -923 Descending FlightAware ADS-B
Sat 03:12:49 PM 25.8530 -80.4060 119° Southeast 167 192 1,900 -831 Descending FlightAware ADS-B
Sat 03:13:22 PM 25.8400 -80.3820 121° Southeast 153 176 1,500 -792 Descending FlightAware ADS-B
Sat 03:13:42 PM 25.8340 -80.3700 119° Southeast 137 158 1,200 -632 Descending FlightAware ADS-B
Sat 03:14:19 PM 25.8230 -80.3490 120° Southeast 133 153 900 -646 Descending FlightAware ADS-B
Sat 03:14:47 PM 25.8150 -80.3330 119° Southeast 124 143 500 -750 Descending FlightAware ADS-B
Sat 03:15:15 PM 25.8070 -80.3160 118° Southeast 132 152 200 -643 Descending FlightAware ADS-B
Sat 03:15:39 PM 25.8000 -80.3030 121° Southeast 127 146 -500 Descending FlightAware ADS-B

Login

Don't have an account? Register now (free) for customized features, flight alerts, and more!